Observation data for Doole 3WNW on 08/12/2019      Previous  Date  Next       Current Mesonet Observations  Soil Data  Daily Summary Page  Observations in Plain Language
KDO2 120500Z 16007KT 29/16 A2995 RMK A01 T02880161  RH  046%=      5-min Rain = 0
KDO2 120501Z 17008KT 29/16 A2995 RMK A01 T02880161  RH  046%=      5-min Rain = 0
KDO2 120502Z 16007KT 29/16 A2995 RMK A01 T02880162  RH  046%=      5-min Rain = 0
KDO2 120503Z 16008KT 29/16 A2995 RMK A01 T02890162  RH  046%=      5-min Rain = 0
KDO2 120504Z 16007KT 29/16 A2995 RMK A01 T02890162  RH  046%=      5-min Rain = 0
KDO2 120505Z 16008KT 29/16 A2995 RMK A01 T02890163  RH  046%=      5-min Rain = 0
KDO2 120506Z 16008KT 29/16 A2995 RMK A01 T02890163  RH  046%=      5-min Rain = 0
KDO2 120507Z 16007KT 29/16 A2995 RMK A01 T02900163  RH  046%=      5-min Rain = 0
KDO2 120508Z 16007KT 29/16 A2995 RMK A01 T02900163  RH  046%=      5-min Rain = 0
KDO2 120509Z 16008KT 29/16 A2995 RMK A01 T02900164  RH  046%=      5-min Rain = 0
KDO2 120510Z 15007KT 29/16 A2995 RMK A01 T02900164  RH  047%=      5-min Rain = 0
KDO2 120511Z 16007KT 29/16 A2995 RMK A01 T02900164  RH  046%=      5-min Rain = 0
KDO2 120512Z 16007KT 29/16 A2995 RMK A01 T02900164  RH  047%=      5-min Rain = 0
KDO2 120513Z 16007KT 29/17 A2995 RMK A01 T02890165  RH  047%=      5-min Rain = 0
KDO2 120514Z 15007KT 29/17 A2995 RMK A01 T02880165  RH  047%=      5-min Rain = 0
KDO2 120515Z 16008KT 29/17 A2995 RMK A01 T02880165  RH  047%=      5-min Rain = 0
KDO2 120516Z 15007KT 29/17 A2995 RMK A01 T02870165  RH  047%=      5-min Rain = 0
KDO2 120517Z 16007KT 29/17 A2995 RMK A01 T02870165  RH  048%=      5-min Rain = 0
KDO2 120518Z 16007KT 29/17 A2995 RMK A01 T02860165  RH  048%=      5-min Rain = 0
KDO2 120519Z 16007KT 29/17 A2995 RMK A01 T02860165  RH  048%=      5-min Rain = 0
KDO2 120520Z 16007KT 29/17 A2995 RMK A01 T02860165  RH  048%=      5-min Rain = 0
KDO2 120521Z 16007KT 29/17 A2995 RMK A01 T02850165  RH  048%=      5-min Rain = 0
KDO2 120522Z 16007KT 29/17 A2995 RMK A01 T02850165  RH  048%=      5-min Rain = 0
KDO2 120523Z 17007KT 29/17 A2995 RMK A01 T02850165  RH  048%=      5-min Rain = 0
KDO2 120524Z 16007KT 29/17 A2995 RMK A01 T02850166  RH  048%=      5-min Rain = 0
KDO2 120525Z 17007KT 29/17 A2995 RMK A01 T02850166  RH  049%=      5-min Rain = 0
KDO2 120526Z 16007KT 28/17 A2995 RMK A01 T02840166  RH  049%=      5-min Rain = 0
KDO2 120527Z 17007KT 28/17 A2995 RMK A01 T02840166  RH  049%=      5-min Rain = 0
KDO2 120528Z 16007KT 28/17 A2995 RMK A01 T02840166  RH  049%=      5-min Rain = 0
KDO2 120529Z 16007KT 29/17 A2995 RMK A01 T02850166  RH  049%=      5-min Rain = 0
KDO2 120530Z 17008KT 28/17 A2995 RMK A01 T02840167  RH  049%=      5-min Rain = 0
KDO2 120531Z 16008KT 28/17 A2995 RMK A01 T02840166  RH  049%=      5-min Rain = 0
KDO2 120532Z 16008KT 28/17 A2995 RMK A01 T02840167  RH  049%=      5-min Rain = 0
KDO2 120533Z 16007KT 28/17 A2995 RMK A01 T02840167  RH  049%=      5-min Rain = 0
KDO2 120534Z 16008KT 28/17 A2995 RMK A01 T02840167  RH  049%=      5-min Rain = 0
KDO2 120535Z 16008KT 28/17 A2995 RMK A01 T02840167  RH  049%=      5-min Rain = 0
KDO2 120536Z 17008KT 29/17 A2995 RMK A01 T02850168  RH  049%=      5-min Rain = 0
KDO2 120537Z 16008KT 29/17 A2995 RMK A01 T02850168  RH  049%=      5-min Rain = 0
KDO2 120538Z 16008KT 29/17 A2995 RMK A01 T02850168  RH  049%=      5-min Rain = 0
KDO2 120539Z 16009KT 29/17 A2995 RMK A01 T02850168  RH  049%=      5-min Rain = 0
KDO2 120540Z 16009KT 29/17 A2995 RMK A01 T02850168  RH  049%=      5-min Rain = 0
KDO2 120541Z 16008KT 29/17 A2995 RMK A01 T02850168  RH  049%=      5-min Rain = 0
KDO2 120542Z 16008KT 29/17 A2995 RMK A01 T02850168  RH  049%=      5-min Rain = 0
KDO2 120543Z 16009KT 29/17 A2995 RMK A01 T02850169  RH  049%=      5-min Rain = 0
KDO2 120544Z 16009KT 29/17 A2995 RMK A01 T02860169  RH  049%=      5-min Rain = 0
KDO2 120545Z 16008KT 29/17 A2995 RMK A01 T02860169  RH  049%=      5-min Rain = 0
KDO2 120546Z 16008KT 29/17 A2995 RMK A01 T02860170  RH  049%=      5-min Rain = 0
KDO2 120547Z 16009KT 29/17 A2995 RMK A01 T02860170  RH  049%=      5-min Rain = 0
KDO2 120548Z 16009KT 29/17 A2995 RMK A01 T02860170  RH  049%=      5-min Rain = 0
KDO2 120549Z 16009KT 29/17 A2995 RMK A01 T02860170  RH  049%=      5-min Rain = 0
KDO2 120550Z 16008KT 29/17 A2995 RMK A01 T02870171  RH  049%=      5-min Rain = 0
KDO2 120551Z 16008KT 29/17 A2995 RMK A01 T02870170  RH  049%=      5-min Rain = 0
KDO2 120552Z 16008KT 29/17 A2995 RMK A01 T02870171  RH  049%=      5-min Rain = 0
KDO2 120553Z 16008KT 29/17 A2995 RMK A01 T02870171  RH  050%=      5-min Rain = 0
KDO2 120554Z 16007KT 29/17 A2995 RMK A01 T02870171  RH  050%=      5-min Rain = 0
KDO2 120555Z 16008KT 29/17 A2995 RMK A01 T02860171  RH  050%=      5-min Rain = 0
KDO2 120556Z 17008KT 29/17 A2995 RMK A01 T02860171  RH  050%=      5-min Rain = 0
KDO2 120557Z 17008KT 29/17 A2995 RMK A01 T02860171  RH  050%=      5-min Rain = 0
KDO2 120558Z 16008KT 29/17 A2995 RMK A01 T02860171  RH  050%=      5-min Rain = 0
KDO2 120559Z 17008KT 29/17 A2995 RMK A01 T02860171  RH  050%=      5-min Rain = 0
KDO2 120600Z 17008KT 29/17 A2995 RMK A01 T02860171  RH  050%=      5-min Rain = 0
KDO2 120601Z 17008KT 29/17 A2995 RMK A01 T02860171  RH  050%=      5-min Rain = 0
KDO2 120602Z 16007KT 29/17 A2995 RMK A01 T02860171  RH  050%=      5-min Rain = 0
KDO2 120603Z 16007KT 29/17 A2995 RMK A01 T02870171  RH  050%=      5-min Rain = 0
KDO2 120604Z 16007KT 29/17 A2995 RMK A01 T02860171  RH  050%=      5-min Rain = 0
KDO2 120605Z 16007KT 29/17 A2995 RMK A01 T02860171  RH  050%=      5-min Rain = 0
KDO2 120606Z 16007KT 29/17 A2995 RMK A01 T02850171  RH  050%=      5-min Rain = 0
KDO2 120607Z 17008KT 29/17 A2995 RMK A01 T02850171  RH  050%=      5-min Rain = 0
KDO2 120608Z 16007KT 29/17 A2995 RMK A01 T02850171  RH  050%=      5-min Rain = 0
KDO2 120609Z 16007KT 29/17 A2995 RMK A01 T02850171  RH  050%=      5-min Rain = 0
KDO2 120610Z 16007KT 28/17 A2995 RMK A01 T02840170  RH  050%=      5-min Rain = 0
KDO2 120611Z 16007KT 28/17 A2995 RMK A01 T02840170  RH  050%=      5-min Rain = 0
KDO2 120612Z 16007KT 28/17 A2995 RMK A01 T02840170  RH  050%=      5-min Rain = 0
KDO2 120613Z 16007KT 28/17 A2995 RMK A01 T02830170  RH  050%=      5-min Rain = 0
KDO2 120614Z 16008KT 28/17 A2995 RMK A01 T02830170  RH  050%=      5-min Rain = 0
KDO2 120615Z 16007KT 28/17 A2995 RMK A01 T02830170  RH  050%=      5-min Rain = 0
KDO2 120616Z 16007KT 28/17 A2995 RMK A01 T02820170  RH  051%=      5-min Rain = 0
KDO2 120617Z 16007KT 28/17 A2995 RMK A01 T02820170  RH  051%=      5-min Rain = 0
KDO2 120618Z 16007KT 28/17 A2995 RMK A01 T02810170  RH  051%=      5-min Rain = 0
KDO2 120619Z 16007KT 28/17 A2995 RMK A01 T02800170  RH  051%=      5-min Rain = 0
KDO2 120620Z 16006KT 28/17 A2995 RMK A01 T02790170  RH  051%=      5-min Rain = 0
KDO2 120621Z 16007KT 28/17 A2995 RMK A01 T02790170  RH  052%=      5-min Rain = 0
KDO2 120622Z 16007KT 28/17 A2995 RMK A01 T02780170  RH  052%=      5-min Rain = 0
KDO2 120623Z 16007KT 28/17 A2995 RMK A01 T02780170  RH  052%=      5-min Rain = 0
KDO2 120624Z 16007KT 28/17 A2995 RMK A01 T02770170  RH  052%=      5-min Rain = 0
KDO2 120625Z 16007KT 28/17 A2995 RMK A01 T02760170  RH  052%=      5-min Rain = 0
KDO2 120626Z 16007KT 28/17 A2995 RMK A01 T02760170  RH  052%=      5-min Rain = 0
KDO2 120627Z 16006KT 28/17 A2995 RMK A01 T02750170  RH  053%=      5-min Rain = 0
KDO2 120628Z 16007KT 28/17 A2995 RMK A01 T02750170  RH  053%=      5-min Rain = 0
KDO2 120629Z 16007KT 28/17 A2995 RMK A01 T02750170  RH  053%=      5-min Rain = 0
KDO2 120630Z 16006KT 27/17 A2995 RMK A01 T02740170  RH  053%=      5-min Rain = 0
KDO2 120631Z 16006KT 27/17 A2995 RMK A01 T02740170  RH  053%=      5-min Rain = 0
KDO2 120632Z 16006KT 27/17 A2995 RMK A01 T02740170  RH  053%=      5-min Rain = 0
KDO2 120633Z 16006KT 27/17 A2995 RMK A01 T02740170  RH  053%=      5-min Rain = 0
KDO2 120634Z 16006KT 27/17 A2995 RMK A01 T02730170  RH  053%=      5-min Rain = 0
KDO2 120635Z 16006KT 27/17 A2995 RMK A01 T02730170  RH  053%=      5-min Rain = 0
KDO2 120636Z 16006KT 27/17 A2995 RMK A01 T02720170  RH  054%=      5-min Rain = 0
KDO2 120637Z 16006KT 27/17 A2995 RMK A01 T02720170  RH  054%=      5-min Rain = 0
KDO2 120638Z 16005KT 27/17 A2995 RMK A01 T02710170  RH  054%=      5-min Rain = 0
KDO2 120639Z 16006KT 27/17 A2995 RMK A01 T02700170  RH  054%=      5-min Rain = 0
KDO2 120640Z 16005KT 27/17 A2995 RMK A01 T02700170  RH  054%=      5-min Rain = 0
KDO2 120641Z 16005KT 27/17 A2995 RMK A01 T02690170  RH  054%=      5-min Rain = 0
KDO2 120642Z 16005KT 27/17 A2995 RMK A01 T02690170  RH  055%=      5-min Rain = 0
KDO2 120643Z 16005KT 27/17 A2995 RMK A01 T02680170  RH  055%=      5-min Rain = 0
KDO2 120644Z 16005KT 27/17 A2995 RMK A01 T02670170  RH  055%=      5-min Rain = 0
KDO2 120645Z 16005KT 27/17 A2995 RMK A01 T02660170  RH  055%=      5-min Rain = 0
KDO2 120646Z 16005KT 27/17 A2995 RMK A01 T02660169  RH  055%=      5-min Rain = 0
KDO2 120647Z 16005KT 27/17 A2995 RMK A01 T02660170  RH  056%=      5-min Rain = 0
KDO2 120648Z 16006KT 27/17 A2995 RMK A01 T02650170  RH  056%=      5-min Rain = 0
KDO2 120649Z 16006KT 26/17 A2995 RMK A01 T02640169  RH  056%=      5-min Rain = 0
KDO2 120650Z 15006KT 26/17 A2995 RMK A01 T02640169  RH  056%=      5-min Rain = 0
KDO2 120651Z 16006KT 26/17 A2995 RMK A01 T02640169  RH  056%=      5-min Rain = 0
KDO2 120652Z 16006KT 26/17 A2995 RMK A01 T02640169  RH  056%=      5-min Rain = 0
KDO2 120653Z 16006KT 27/17 A2995 RMK A01 T02650169  RH  056%=      5-min Rain = 0
KDO2 120654Z 16007KT 27/17 A2995 RMK A01 T02660169  RH  055%=      5-min Rain = 0
KDO2 120655Z 16007KT 27/17 A2995 RMK A01 T02660169  RH  055%=      5-min Rain = 0
KDO2 120656Z 16007KT 27/17 A2995 RMK A01 T02670169  RH  055%=      5-min Rain = 0
KDO2 120657Z 16007KT 27/17 A2995 RMK A01 T02680169  RH  055%=      5-min Rain = 0
KDO2 120658Z 16007KT 27/17 A2995 RMK A01 T02680170  RH  055%=      5-min Rain = 0
KDO2 120659Z 17007KT 27/17 A2995 RMK A01 T02690169  RH  054%=      5-min Rain = 0
KDO2 120700Z 17007KT 27/17 A2995 RMK A01 T02700170  RH  054%=      5-min Rain = 0
KDO2 120701Z 17007KT 27/17 A2995 RMK A01 T02700169  RH  054%=      5-min Rain = 0
KDO2 120702Z 17008KT 27/17 A2995 RMK A01 T02700169  RH  054%=      5-min Rain = 0
KDO2 120703Z 17009KT 27/17 A2995 RMK A01 T02700170  RH  054%=      5-min Rain = 0
KDO2 120704Z 17008KT 27/17 A2995 RMK A01 T02710170  RH  054%=      5-min Rain = 0
KDO2 120705Z 17009KT 27/17 A2995 RMK A01 T02710169  RH  054%=      5-min Rain = 0
KDO2 120706Z 17009KT 27/17 A2995 RMK A01 T02710170  RH  054%=      5-min Rain = 0
KDO2 120707Z 17009KT 27/17 A2995 RMK A01 T02710170  RH  054%=      5-min Rain = 0
KDO2 120708Z 17009KT 27/17 A2995 RMK A01 T02710170  RH  054%=      5-min Rain = 0
KDO2 120709Z 17008KT 27/17 A2995 RMK A01 T02710170  RH  054%=      5-min Rain = 0
KDO2 120710Z 17009KT 27/17 A2995 RMK A01 T02710170  RH  054%=      5-min Rain = 0
KDO2 120711Z 17008KT 27/17 A2995 RMK A01 T02710170  RH  054%=      5-min Rain = 0
KDO2 120712Z 17009KT 27/17 A2995 RMK A01 T02700170  RH  054%=      5-min Rain = 0
KDO2 120713Z 17009KT 27/17 A2995 RMK A01 T02700170  RH  054%=      5-min Rain = 0
KDO2 120714Z 17009KT 27/17 A2995 RMK A01 T02700170  RH  054%=      5-min Rain = 0
KDO2 120715Z 17009KT 27/17 A2994 RMK A01 T02700170  RH  054%=      5-min Rain = 0
KDO2 120716Z 17008KT 27/17 A2994 RMK A01 T02710170  RH  054%=      5-min Rain = 0
KDO2 120717Z 17009KT 27/17 A2994 RMK A01 T02710170  RH  054%=      5-min Rain = 0
KDO2 120718Z 17010KT 27/17 A2994 RMK A01 T02710170  RH  054%=      5-min Rain = 0
KDO2 120719Z 17009KT 27/17 A2994 RMK A01 T02710170  RH  054%=      5-min Rain = 0
KDO2 120720Z 17009KT 27/17 A2994 RMK A01 T02710171  RH  054%=      5-min Rain = 0
KDO2 120721Z 17009KT 27/17 A2994 RMK A01 T02710171  RH  054%=      5-min Rain = 0
KDO2 120722Z 17009KT 27/17 A2994 RMK A01 T02710170  RH  054%=      5-min Rain = 0
KDO2 120723Z 17008KT 27/17 A2994 RMK A01 T02710170  RH  054%=      5-min Rain = 0
KDO2 120724Z 17008KT 27/17 A2994 RMK A01 T02710171  RH  054%=      5-min Rain = 0
KDO2 120725Z 17009KT 27/17 A2994 RMK A01 T02710171  RH  054%=      5-min Rain = 0
KDO2 120726Z 16010KT 27/17 A2994 RMK A01 T02710171  RH  054%=      5-min Rain = 0
KDO2 120727Z 16009KT 27/17 A2994 RMK A01 T02710171  RH  054%=      5-min Rain = 0
KDO2 120728Z 16010KT 27/17 A2994 RMK A01 T02710171  RH  054%=      5-min Rain = 0
KDO2 120729Z 16010KT 27/17 A2994 RMK A01 T02710171  RH  055%=      5-min Rain = 0
KDO2 120730Z 16010KT 27/17 A2994 RMK A01 T02710171  RH  055%=      5-min Rain = 0
KDO2 120731Z 16010KT 27/17 A2994 RMK A01 T02700171  RH  055%=      5-min Rain = 0
KDO2 120732Z 17008KT 27/17 A2994 RMK A01 T02710172  RH  055%=      5-min Rain = 0
KDO2 120733Z 16009KT 27/17 A2994 RMK A01 T02710172  RH  055%=      5-min Rain = 0
KDO2 120734Z 16009KT 27/17 A2994 RMK A01 T02700172  RH  055%=      5-min Rain = 0
KDO2 120735Z 16010KT 27/17 A2994 RMK A01 T02700172  RH  055%=      5-min Rain = 0
KDO2 120736Z 16010KT 27/17 A2994 RMK A01 T02700172  RH  055%=      5-min Rain = 0
KDO2 120737Z 16008KT 27/17 A2994 RMK A01 T02700173  RH  055%=      5-min Rain = 0
KDO2 120738Z 16009KT 27/17 A2994 RMK A01 T02700173  RH  055%=      5-min Rain = 0
KDO2 120739Z 17009KT 27/17 A2994 RMK A01 T02700173  RH  055%=      5-min Rain = 0
KDO2 120740Z 17010KT 27/17 A2994 RMK A01 T02700174  RH  056%=      5-min Rain = 0
KDO2 120741Z 17009KT 27/17 A2994 RMK A01 T02700173  RH  056%=      5-min Rain = 0
KDO2 120742Z 17009KT 27/17 A2994 RMK A01 T02700174  RH  056%=      5-min Rain = 0
KDO2 120743Z 17009KT 27/17 A2994 RMK A01 T02700174  RH  056%=      5-min Rain = 0
KDO2 120744Z 17010KT 27/18 A2994 RMK A01 T02700175  RH  056%=      5-min Rain = 0
KDO2 120745Z 17009KT 27/18 A2994 RMK A01 T02700175  RH  056%=      5-min Rain = 0
KDO2 120746Z 17010KT 27/18 A2994 RMK A01 T02700175  RH  056%=      5-min Rain = 0
KDO2 120747Z 17010KT 27/18 A2994 RMK A01 T02700176  RH  056%=      5-min Rain = 0
KDO2 120748Z 17008KT 27/18 A2994 RMK A01 T02710176  RH  056%=      5-min Rain = 0
KDO2 120749Z 17009KT 27/18 A2994 RMK A01 T02700176  RH  056%=      5-min Rain = 0
KDO2 120750Z 17009KT 27/18 A2994 RMK A01 T02700176  RH  057%=      5-min Rain = 0
KDO2 120751Z 17009KT 27/18 A2994 RMK A01 T02690177  RH  057%=      5-min Rain = 0
KDO2 120752Z 17009KT 27/18 A2994 RMK A01 T02690177  RH  057%=      5-min Rain = 0
KDO2 120753Z 17008KT 27/18 A2994 RMK A01 T02690178  RH  057%=      5-min Rain = 0
KDO2 120754Z 17008KT 27/18 A2994 RMK A01 T02690178  RH  057%=      5-min Rain = 0
KDO2 120755Z 17009KT 27/18 A2994 RMK A01 T02690178  RH  057%=      5-min Rain = 0
KDO2 120756Z 17009KT 27/18 A2994 RMK A01 T02690179  RH  058%=      5-min Rain = 0
KDO2 120757Z 17009KT 27/18 A2994 RMK A01 T02690179  RH  058%=      5-min Rain = 0
KDO2 120758Z 17009KT 27/18 A2994 RMK A01 T02690179  RH  058%=      5-min Rain = 0
KDO2 120759Z 17010KT 27/18 A2994 RMK A01 T02700180  RH  058%=      5-min Rain = 0
KDO2 120800Z 17010KT 27/18 A2994 RMK A01 T02700180  RH  058%=      5-min Rain = 0
KDO2 120801Z 17009KT 27/18 A2994 RMK A01 T02700180  RH  058%=      5-min Rain = 0
KDO2 120802Z 17008KT 27/18 A2994 RMK A01 T02700180  RH  058%=      5-min Rain = 0
KDO2 120803Z 17008KT 27/18 A2994 RMK A01 T02700180  RH  058%=      5-min Rain = 0
KDO2 120804Z 17009KT 27/18 A2994 RMK A01 T02700181  RH  058%=      5-min Rain = 0
KDO2 120805Z 17009KT 27/18 A2994 RMK A01 T02700182  RH  058%=      5-min Rain = 0
KDO2 120806Z 17010KT 27/18 A2994 RMK A01 T02700182  RH  059%=      5-min Rain = 0
KDO2 120807Z 17009KT 27/18 A2994 RMK A01 T02700182  RH  059%=      5-min Rain = 0
KDO2 120808Z 17010KT 27/18 A2993 RMK A01 T02700183  RH  059%=      5-min Rain = 0
KDO2 120809Z 17008KT 27/18 A2993 RMK A01 T02700183  RH  059%=      5-min Rain = 0
KDO2 120810Z 18009KT 27/18 A2993 RMK A01 T02700183  RH  059%=      5-min Rain = 0
KDO2 120811Z 17009KT 27/18 A2993 RMK A01 T02690184  RH  059%=      5-min Rain = 0
KDO2 120812Z 18009KT 27/18 A2993 RMK A01 T02690184  RH  060%=      5-min Rain = 0
KDO2 120813Z 18009KT 27/18 A2993 RMK A01 T02690184  RH  060%=      5-min Rain = 0
KDO2 120814Z 18008KT 27/19 A2993 RMK A01 T02680185  RH  060%=      5-min Rain = 0
KDO2 120815Z 18008KT 27/19 A2993 RMK A01 T02680185  RH  060%=      5-min Rain = 0
KDO2 120816Z 18009KT 27/19 A2993 RMK A01 T02680186  RH  061%=      5-min Rain = 0
KDO2 120817Z 18008KT 27/19 A2994 RMK A01 T02680186  RH  061%=      5-min Rain = 0
KDO2 120818Z 18008KT 27/19 A2994 RMK A01 T02680186  RH  061%=      5-min Rain = 0
KDO2 120819Z 17008KT 27/19 A2994 RMK A01 T02680186  RH  061%=      5-min Rain = 0
KDO2 120820Z 17007KT 27/19 A2994 RMK A01 T02670187  RH  061%=      5-min Rain = 0
KDO2 120821Z 17008KT 27/19 A2994 RMK A01 T02670187  RH  062%=      5-min Rain = 0
KDO2 120822Z 17009KT 27/19 A2994 RMK A01 T02670188  RH  062%=      5-min Rain = 0
KDO2 120823Z 17007KT 27/19 A2994 RMK A01 T02680188  RH  062%=      5-min Rain = 0
KDO2 120824Z 18009KT 27/19 A2994 RMK A01 T02670188  RH  062%=      5-min Rain = 0
KDO2 120825Z 17008KT 27/19 A2994 RMK A01 T02670189  RH  062%=      5-min Rain = 0
KDO2 120826Z 17009KT 27/19 A2993 RMK A01 T02670189  RH  062%=      5-min Rain = 0
KDO2 120827Z 18009KT 27/19 A2993 RMK A01 T02670189  RH  062%=      5-min Rain = 0
KDO2 120828Z 18008KT 27/19 A2993 RMK A01 T02670189  RH  062%=      5-min Rain = 0
KDO2 120829Z 18010KT 27/19 A2993 RMK A01 T02680190  RH  062%=      5-min Rain = 0
KDO2 120830Z 18008KT 27/19 A2993 RMK A01 T02680190  RH  062%=      5-min Rain = 0
KDO2 120831Z 18009KT 27/19 A2993 RMK A01 T02670190  RH  062%=      5-min Rain = 0
KDO2 120832Z 17008KT 27/19 A2993 RMK A01 T02680190  RH  063%=      5-min Rain = 0
KDO2 120833Z 17008KT 27/19 A2993 RMK A01 T02670190  RH  063%=      5-min Rain = 0
KDO2 120834Z 18010KT 27/19 A2993 RMK A01 T02670191  RH  063%=      5-min Rain = 0
KDO2 120835Z 17009KT 27/19 A2993 RMK A01 T02670191  RH  063%=      5-min Rain = 0
KDO2 120836Z 18009KT 27/19 A2994 RMK A01 T02670191  RH  063%=      5-min Rain = 0
KDO2 120837Z 17008KT 27/19 A2994 RMK A01 T02670191  RH  063%=      5-min Rain = 0
KDO2 120838Z 18009KT 27/19 A2994 RMK A01 T02670192  RH  063%=      5-min Rain = 0
KDO2 120839Z 17008KT 27/19 A2994 RMK A01 T02670192  RH  064%=      5-min Rain = 0
KDO2 120840Z 17008KT 27/19 A2994 RMK A01 T02670192  RH  064%=      5-min Rain = 0
KDO2 120841Z 17007KT 27/19 A2994 RMK A01 T02670193  RH  064%=      5-min Rain = 0
KDO2 120842Z 17009KT 27/19 A2994 RMK A01 T02660193  RH  064%=      5-min Rain = 0
KDO2 120843Z 17008KT 27/19 A2994 RMK A01 T02660193  RH  064%=      5-min Rain = 0
KDO2 120844Z 17007KT 27/19 A2994 RMK A01 T02660193  RH  064%=      5-min Rain = 0
KDO2 120845Z 17007KT 27/19 A2994 RMK A01 T02660193  RH  064%=      5-min Rain = 0
KDO2 120846Z 17007KT 27/19 A2994 RMK A01 T02660194  RH  065%=      5-min Rain = 0
KDO2 120847Z 17008KT 27/19 A2994 RMK A01 T02650194  RH  065%=      5-min Rain = 0
KDO2 120848Z 17008KT 27/19 A2994 RMK A01 T02650194  RH  065%=      5-min Rain = 0
KDO2 120849Z 17009KT 27/19 A2994 RMK A01 T02650194  RH  065%=      5-min Rain = 0
KDO2 120850Z 17008G13KT 27/20 A2994 RMK A01 T02660195  RH  065%=      5-min Rain = 0
KDO2 120851Z 17008KT 27/20 A2994 RMK A01 T02660195  RH  065%=      5-min Rain = 0
KDO2 120852Z 17010KT 27/20 A2994 RMK A01 T02660195  RH  065%=      5-min Rain = 0
KDO2 120853Z 17009KT 27/20 A2994 RMK A01 T02660195  RH  065%=      5-min Rain = 0
KDO2 120854Z 17009KT 27/20 A2994 RMK A01 T02670196  RH  065%=      5-min Rain = 0
KDO2 120855Z 17010KT 27/20 A2994 RMK A01 T02670196  RH  065%=      5-min Rain = 0
KDO2 120856Z 17009KT 27/20 A2993 RMK A01 T02670196  RH  065%=      5-min Rain = 0
KDO2 120857Z 17009KT 27/20 A2993 RMK A01 T02660196  RH  065%=      5-min Rain = 0
KDO2 120858Z 17009KT 27/20 A2993 RMK A01 T02660196  RH  065%=      5-min Rain = 0
KDO2 120859Z 17008KT 27/20 A2993 RMK A01 T02670197  RH  065%=      5-min Rain = 0
KDO2 120900Z 17009KT 27/20 A2993 RMK A01 T02660197  RH  066%=      5-min Rain = 0
KDO2 120901Z 17008KT 27/20 A2993 RMK A01 T02660197  RH  066%=      5-min Rain = 0
KDO2 120902Z 17007KT 27/20 A2993 RMK A01 T02660197  RH  066%=      5-min Rain = 0
KDO2 120903Z 18009KT 27/20 A2993 RMK A01 T02650197  RH  066%=      5-min Rain = 0
KDO2 120904Z 17008KT 27/20 A2993 RMK A01 T02650198  RH  066%=      5-min Rain = 0
KDO2 120905Z 17008KT 27/20 A2993 RMK A01 T02650197  RH  066%=      5-min Rain = 0
KDO2 120906Z 17008KT 27/20 A2993 RMK A01 T02650198  RH  067%=      5-min Rain = 0
KDO2 120907Z 17008KT 26/20 A2993 RMK A01 T02640198  RH  067%=      5-min Rain = 0
KDO2 120908Z 17008KT 26/20 A2993 RMK A01 T02640198  RH  067%=      5-min Rain = 0
KDO2 120909Z 17008KT 26/20 A2993 RMK A01 T02640199  RH  067%=      5-min Rain = 0
KDO2 120910Z 17008KT 26/20 A2993 RMK A01 T02640199  RH  068%=      5-min Rain = 0
KDO2 120911Z 17008KT 26/20 A2993 RMK A01 T02640200  RH  068%=      5-min Rain = 0
KDO2 120912Z 17009KT 26/20 A2993 RMK A01 T02640200  RH  068%=      5-min Rain = 0
KDO2 120913Z 17009KT 26/20 A2993 RMK A01 T02640201  RH  068%=      5-min Rain = 0
KDO2 120914Z 18009KT 26/20 A2993 RMK A01 T02640201  RH  068%=      5-min Rain = 0
KDO2 120915Z 18009KT 26/20 A2993 RMK A01 T02640201  RH  068%=      5-min Rain = 0
KDO2 120916Z 18009KT 26/20 A2993 RMK A01 T02640201  RH  068%=      5-min Rain = 0
KDO2 120917Z 18008KT 26/20 A2993 RMK A01 T02640201  RH  069%=      5-min Rain = 0
KDO2 120918Z 18008KT 26/20 A2993 RMK A01 T02640201  RH  069%=      5-min Rain = 0
KDO2 120919Z 18008KT 26/20 A2993 RMK A01 T02640202  RH  069%=      5-min Rain = 0
KDO2 120920Z 18008KT 26/20 A2993 RMK A01 T02630202  RH  069%=      5-min Rain = 0
KDO2 120921Z 19008KT 26/20 A2993 RMK A01 T02630203  RH  069%=      5-min Rain = 0
KDO2 120922Z 18008KT 26/20 A2993 RMK A01 T02630203  RH  070%=      5-min Rain = 0
KDO2 120923Z 18009KT 26/20 A2993 RMK A01 T02630204  RH  070%=      5-min Rain = 0
KDO2 120924Z 19009KT 26/21 A2993 RMK A01 T02620205  RH  070%=      5-min Rain = 0
KDO2 120925Z 19009KT 26/21 A2993 RMK A01 T02620206  RH  071%=      5-min Rain = 0
KDO2 120926Z 18009KT 26/21 A2993 RMK A01 T02630206  RH  071%=      5-min Rain = 0
KDO2 120927Z 18010KT 26/21 A2993 RMK A01 T02640207  RH  071%=      5-min Rain = 0
KDO2 120928Z 19010KT 27/21 A2993 RMK A01 T02650207  RH  071%=      5-min Rain = 0
KDO2 120929Z 18010KT 26/21 A2993 RMK A01 T02640207  RH  071%=      5-min Rain = 0
KDO2 120930Z 19010KT 27/21 A2993 RMK A01 T02650207  RH  071%=      5-min Rain = 0
KDO2 120931Z 19010KT 27/21 A2992 RMK A01 T02650207  RH  071%=      5-min Rain = 0
KDO2 120932Z 18010KT 27/21 A2992 RMK A01 T02650208  RH  071%=      5-min Rain = 0
KDO2 120933Z 18011KT 27/21 A2992 RMK A01 T02650208  RH  071%=      5-min Rain = 0
KDO2 120934Z 19011KT 27/21 A2992 RMK A01 T02650208  RH  071%=      5-min Rain = 0
KDO2 120935Z 19010KT 27/21 A2992 RMK A01 T02650208  RH  071%=      5-min Rain = 0
KDO2 120936Z 19010KT 27/21 A2992 RMK A01 T02660208  RH  071%=      5-min Rain = 0
KDO2 120937Z 19009KT 27/21 A2992 RMK A01 T02660209  RH  071%=      5-min Rain = 0
KDO2 120938Z 19009KT 27/21 A2992 RMK A01 T02660209  RH  071%=      5-min Rain = 0
KDO2 120939Z 19011KT 27/21 A2992 RMK A01 T02660209  RH  071%=      5-min Rain = 0
KDO2 120940Z 18011KT 27/21 A2992 RMK A01 T02660209  RH  071%=      5-min Rain = 0
KDO2 120941Z 18011KT 27/21 A2992 RMK A01 T02670210  RH  071%=      5-min Rain = 0
KDO2 120942Z 19010KT 27/21 A2992 RMK A01 T02670211  RH  071%=      5-min Rain = 0
KDO2 120943Z 18011KT 27/21 A2992 RMK A01 T02670211  RH  071%=      5-min Rain = 0
KDO2 120944Z 18010KT 27/21 A2992 RMK A01 T02680211  RH  071%=      5-min Rain = 0
KDO2 120945Z 18010KT 27/21 A2992 RMK A01 T02670211  RH  071%=      5-min Rain = 0
KDO2 120946Z 18009KT 27/21 A2992 RMK A01 T02670211  RH  071%=      5-min Rain = 0
KDO2 120947Z 18010KT 27/21 A2992 RMK A01 T02670211  RH  071%=      5-min Rain = 0
KDO2 120948Z 18011KT 27/21 A2992 RMK A01 T02670212  RH  072%=      5-min Rain = 0
KDO2 120949Z 18013KT 27/21 A2992 RMK A01 T02670212  RH  072%=      5-min Rain = 0
KDO2 120950Z 17010KT 27/21 A2992 RMK A01 T02680213  RH  072%=      5-min Rain = 0
KDO2 120951Z 17010KT 27/21 A2992 RMK A01 T02680212  RH  072%=      5-min Rain = 0
KDO2 120952Z 17009KT 27/21 A2992 RMK A01 T02680212  RH  072%=      5-min Rain = 0
KDO2 120953Z 17009KT 27/21 A2992 RMK A01 T02670212  RH  072%=      5-min Rain = 0
KDO2 120954Z 17009KT 27/21 A2992 RMK A01 T02670213  RH  072%=      5-min Rain = 0
KDO2 120955Z 17010KT 27/21 A2992 RMK A01 T02670213  RH  072%=      5-min Rain = 0
KDO2 120956Z 17010KT 27/21 A2992 RMK A01 T02670213  RH  072%=      5-min Rain = 0
KDO2 120957Z 17009KT 27/21 A2992 RMK A01 T02670213  RH  072%=      5-min Rain = 0
KDO2 120958Z 18008KT 27/21 A2992 RMK A01 T02660213  RH  072%=      5-min Rain = 0
KDO2 120959Z 18009KT 27/21 A2992 RMK A01 T02660213  RH  073%=      5-min Rain = 0
KDO2 121000Z 18009KT 27/21 A2992 RMK A01 T02660213  RH  073%=      5-min Rain = 0
KDO2 121001Z 18009KT 27/21 A2992 RMK A01 T02660214  RH  073%=      5-min Rain = 0
KDO2 121002Z 18008KT 27/21 A2992 RMK A01 T02660213  RH  073%=      5-min Rain = 0
KDO2 121003Z 18009KT 27/21 A2992 RMK A01 T02660213  RH  073%=      5-min Rain = 0
KDO2 121004Z 18009KT 27/21 A2992 RMK A01 T02660214  RH  073%=      5-min Rain = 0
KDO2 121005Z 18009KT 27/21 A2992 RMK A01 T02660214  RH  073%=      5-min Rain = 0
KDO2 121006Z 18008KT 27/21 A2992 RMK A01 T02660214  RH  073%=      5-min Rain = 0
KDO2 121007Z 18010KT 27/21 A2992 RMK A01 T02650214  RH  073%=      5-min Rain = 0
KDO2 121008Z 18012KT 27/22 A2992 RMK A01 T02660215  RH  074%=      5-min Rain = 0
KDO2 121009Z 18011KT 27/22 A2992 RMK A01 T02660215  RH  074%=      5-min Rain = 0
KDO2 121010Z 18010KT 27/22 A2992 RMK A01 T02660215  RH  073%=      5-min Rain = 0
KDO2 121011Z 18010KT 27/22 A2992 RMK A01 T02670215  RH  073%=      5-min Rain = 0
KDO2 121012Z 18010KT 27/22 A2992 RMK A01 T02660216  RH  074%=      5-min Rain = 0
KDO2 121013Z 18010KT 27/22 A2992 RMK A01 T02670216  RH  074%=      5-min Rain = 0
KDO2 121014Z 18011KT 27/22 A2992 RMK A01 T02670216  RH  074%=      5-min Rain = 0
KDO2 121015Z 18011KT 27/22 A2992 RMK A01 T02670217  RH  074%=      5-min Rain = 0
KDO2 121016Z 18010KT 27/22 A2992 RMK A01 T02670217  RH  074%=      5-min Rain = 0
KDO2 121017Z 18010KT 27/22 A2992 RMK A01 T02660216  RH  074%=      5-min Rain = 0
KDO2 121018Z 18011KT 27/22 A2992 RMK A01 T02660217  RH  074%=      5-min Rain = 0
KDO2 121019Z 18010KT 27/22 A2992 RMK A01 T02660217  RH  074%=      5-min Rain = 0
KDO2 121020Z 18010KT 27/22 A2992 RMK A01 T02660217  RH  074%=      5-min Rain = 0
KDO2 121021Z 17010KT 27/22 A2992 RMK A01 T02660217  RH  074%=      5-min Rain = 0
KDO2 121022Z 18010KT 27/22 A2992 RMK A01 T02660217  RH  074%=      5-min Rain = 0
KDO2 121023Z 18010KT 27/22 A2992 RMK A01 T02660217  RH  075%=      5-min Rain = 0
KDO2 121024Z 18009KT 27/22 A2992 RMK A01 T02660217  RH  075%=      5-min Rain = 0
KDO2 121025Z 18011KT 27/22 A2992 RMK A01 T02660217  RH  075%=      5-min Rain = 0
KDO2 121026Z 17010KT 27/22 A2992 RMK A01 T02660218  RH  075%=      5-min Rain = 0
KDO2 121027Z 18009KT 27/22 A2992 RMK A01 T02660217  RH  075%=      5-min Rain = 0
KDO2 121028Z 17010KT 27/22 A2992 RMK A01 T02660218  RH  075%=      5-min Rain = 0
KDO2 121029Z 18009KT 27/22 A2992 RMK A01 T02650218  RH  075%=      5-min Rain = 0
KDO2 121030Z 18010KT 27/22 A2992 RMK A01 T02650217  RH  075%=      5-min Rain = 0
KDO2 121031Z 17010KT 27/22 A2992 RMK A01 T02650218  RH  075%=      5-min Rain = 0
KDO2 121032Z 17010KT 27/22 A2992 RMK A01 T02650218  RH  075%=      5-min Rain = 0
KDO2 121033Z 17009KT 27/22 A2992 RMK A01 T02650218  RH  075%=      5-min Rain = 0
KDO2 121034Z 17010KT 27/22 A2992 RMK A01 T02650218  RH  075%=      5-min Rain = 0
KDO2 121035Z 18009KT 26/22 A2992 RMK A01 T02640218  RH  076%=      5-min Rain = 0
KDO2 121036Z 17010KT 26/22 A2992 RMK A01 T02640218  RH  076%=      5-min Rain = 0
KDO2 121037Z 17008KT 27/22 A2992 RMK A01 T02650218  RH  076%=      5-min Rain = 0
KDO2 121038Z 17008KT 26/22 A2992 RMK A01 T02640218  RH  076%=      5-min Rain = 0
KDO2 121039Z 16009KT 26/22 A2992 RMK A01 T02630218  RH  076%=      5-min Rain = 0
KDO2 121040Z 17008KT 26/22 A2992 RMK A01 T02630218  RH  076%=      5-min Rain = 0
KDO2 121041Z 17008KT 26/22 A2992 RMK A01 T02630217  RH  076%=      5-min Rain = 0
KDO2 121042Z 16007KT 26/22 A2992 RMK A01 T02620217  RH  076%=      5-min Rain = 0
KDO2 121043Z 17008KT 26/22 A2992 RMK A01 T02610217  RH  076%=      5-min Rain = 0
KDO2 121044Z 17009KT 26/22 A2992 RMK A01 T02610217  RH  077%=      5-min Rain = 0
KDO2 121045Z 16008KT 26/22 A2992 RMK A01 T02600217  RH  077%=      5-min Rain = 0
KDO2 121046Z 17008KT 26/22 A2992 RMK A01 T02610217  RH  077%=      5-min Rain = 0
KDO2 121047Z 17008KT 26/22 A2992 RMK A01 T02610217  RH  077%=      5-min Rain = 0
KDO2 121048Z 17007KT 26/22 A2992 RMK A01 T02600217  RH  077%=      5-min Rain = 0
KDO2 121049Z 17008KT 26/22 A2992 RMK A01 T02600217  RH  077%=      5-min Rain = 0
KDO2 121050Z 17008KT 26/22 A2992 RMK A01 T02600217  RH  077%=      5-min Rain = 0
KDO2 121051Z 17008KT 26/22 A2992 RMK A01 T02600217  RH  077%=      5-min Rain = 0
KDO2 121052Z 17009KT 26/22 A2992 RMK A01 T02600217  RH  077%=      5-min Rain = 0
KDO2 121053Z 17009KT 26/22 A2992 RMK A01 T02600217  RH  077%=      5-min Rain = 0
KDO2 121054Z 16010KT 26/22 A2992 RMK A01 T02600217  RH  077%=      5-min Rain = 0
KDO2 121055Z 17010KT 26/22 A2992 RMK A01 T02600218  RH  077%=      5-min Rain = 0
KDO2 121056Z 16008KT 26/22 A2992 RMK A01 T02600217  RH  077%=      5-min Rain = 0
KDO2 121057Z 17008KT 26/22 A2992 RMK A01 T02600217  RH  077%=      5-min Rain = 0
KDO2 121058Z 17008KT 26/22 A2992 RMK A01 T02600217  RH  077%=      5-min Rain = 0
KDO2 121059Z 17008KT 26/22 A2992 RMK A01 T02590217  RH  078%=      5-min Rain = 0
KDO2 121100Z 17007KT 26/22 A2992 RMK A01 T02590217  RH  078%=      5-min Rain = 0
KDO2 121101Z 17009KT 26/22 A2992 RMK A01 T02590218  RH  078%=      5-min Rain = 0
KDO2 121102Z 17008KT 26/22 A2992 RMK A01 T02590218  RH  078%=      5-min Rain = 0
KDO2 121103Z 18010KT 26/22 A2992 RMK A01 T02590218  RH  078%=      5-min Rain = 0
KDO2 121104Z 18008KT 26/22 A2992 RMK A01 T02590218  RH  078%=      5-min Rain = 0
KDO2 121105Z 17009KT 26/22 A2992 RMK A01 T02590218  RH  078%=      5-min Rain = 0
KDO2 121106Z 17010KT 26/22 A2992 RMK A01 T02590218  RH  078%=      5-min Rain = 0
KDO2 121107Z 17010KT 26/22 A2992 RMK A01 T02590218  RH  078%=      5-min Rain = 0
KDO2 121108Z 17009KT 26/22 A2993 RMK A01 T02590218  RH  078%=      5-min Rain = 0
KDO2 121109Z 17010KT 26/22 A2993 RMK A01 T02590219  RH  078%=      5-min Rain = 0
KDO2 121110Z 18011KT 26/22 A2993 RMK A01 T02590219  RH  078%=      5-min Rain = 0
KDO2 121111Z 17010KT 26/22 A2993 RMK A01 T02590219  RH  078%=      5-min Rain = 0
KDO2 121112Z 17011KT 26/22 A2993 RMK A01 T02590219  RH  078%=      5-min Rain = 0
KDO2 121113Z 16009KT 26/22 A2993 RMK A01 T02590219  RH  079%=      5-min Rain = 0
KDO2 121114Z 17009KT 26/22 A2993 RMK A01 T02590219  RH  078%=      5-min Rain = 0
KDO2 121115Z 17008KT 26/22 A2993 RMK A01 T02590219  RH  079%=      5-min Rain = 0
KDO2 121116Z 16009KT 26/22 A2993 RMK A01 T02580219  RH  079%=      5-min Rain = 0
KDO2 121117Z 17009KT 26/22 A2993 RMK A01 T02580219  RH  079%=      5-min Rain = 0
KDO2 121118Z 18010KT 26/22 A2993 RMK A01 T02580219  RH  079%=      5-min Rain = 0
KDO2 121119Z 17011KT 26/22 A2993 RMK A01 T02580219  RH  079%=      5-min Rain = 0
KDO2 121120Z 18010KT 26/22 A2993 RMK A01 T02580219  RH  079%=      5-min Rain = 0
KDO2 121121Z 17008G14KT 26/22 A2993 RMK A01 T02590219  RH  079%=      5-min Rain = 0
KDO2 121122Z 17010KT 26/22 A2993 RMK A01 T02580220  RH  079%=      5-min Rain = 0
KDO2 121123Z 18010KT 26/22 A2993 RMK A01 T02580220  RH  079%=      5-min Rain = 0
KDO2 121124Z 18013KT 26/22 A2993 RMK A01 T02580220  RH  079%=      5-min Rain = 0
KDO2 121125Z 18013KT 26/22 A2993 RMK A01 T02580220  RH  079%=      5-min Rain = 0
KDO2 121126Z 18013KT 26/22 A2993 RMK A01 T02590220  RH  079%=      5-min Rain = 0
KDO2 121127Z 18012KT 26/22 A2993 RMK A01 T02590220  RH  079%=      5-min Rain = 0
KDO2 121128Z 18011KT 26/22 A2993 RMK A01 T02600220  RH  079%=      5-min Rain = 0
KDO2 121129Z 18011KT 26/22 A2993 RMK A01 T02600220  RH  079%=      5-min Rain = 0
KDO2 121130Z 18013KT 26/22 A2993 RMK A01 T02600220  RH  079%=      5-min Rain = 0
KDO2 121131Z 18011KT 26/22 A2993 RMK A01 T02600220  RH  079%=      5-min Rain = 0
KDO2 121132Z 18009KT 26/22 A2993 RMK A01 T02600220  RH  079%=      5-min Rain = 0
KDO2 121133Z 18010KT 26/22 A2993 RMK A01 T02590220  RH  079%=      5-min Rain = 0
KDO2 121134Z 18012KT 26/22 A2993 RMK A01 T02590221  RH  079%=      5-min Rain = 0
KDO2 121135Z 18011KT 26/22 A2993 RMK A01 T02590221  RH  079%=      5-min Rain = 0
KDO2 121136Z 18013KT 26/22 A2993 RMK A01 T02590220  RH  079%=      5-min Rain = 0
KDO2 121137Z 18014KT 26/22 A2993 RMK A01 T02600221  RH  079%=      5-min Rain = 0
KDO2 121138Z 18011KT 26/22 A2993 RMK A01 T02610221  RH  079%=      5-min Rain = 0
KDO2 121139Z 18011KT 26/22 A2993 RMK A01 T02610221  RH  079%=      5-min Rain = 0
KDO2 121140Z 18011KT 26/22 A2993 RMK A01 T02600221  RH  079%=      5-min Rain = 0
KDO2 121141Z 18013KT 26/22 A2993 RMK A01 T02600221  RH  079%=      5-min Rain = 0
KDO2 121142Z 18013KT 26/22 A2993 RMK A01 T02600221  RH  079%=      5-min Rain = 0
KDO2 121143Z 18010G15KT 26/22 A2993 RMK A01 T02600221  RH  079%=      5-min Rain = 0
KDO2 121144Z 18011KT 26/22 A2993 RMK A01 T02600221  RH  079%=      5-min Rain = 0
KDO2 121145Z 18011KT 26/22 A2993 RMK A01 T02600221  RH  079%=      5-min Rain = 0
KDO2 121146Z 18010KT 26/22 A2993 RMK A01 T02590221  RH  079%=      5-min Rain = 0
KDO2 121147Z 18011KT 26/22 A2993 RMK A01 T02590220  RH  079%=      5-min Rain = 0
KDO2 121148Z 18012KT 26/22 A2993 RMK A01 T02590221  RH  080%=      5-min Rain = 0
KDO2 121149Z 18013KT 26/22 A2993 RMK A01 T02590221  RH  080%=      5-min Rain = 0
KDO2 121150Z 18011KT 26/22 A2993 RMK A01 T02590221  RH  079%=      5-min Rain = 0
KDO2 121151Z 18012KT 26/22 A2993 RMK A01 T02590221  RH  079%=      5-min Rain = 0
KDO2 121152Z 19012KT 26/22 A2993 RMK A01 T02590221  RH  079%=      5-min Rain = 0
KDO2 121153Z 18013KT 26/22 A2993 RMK A01 T02590221  RH  079%=      5-min Rain = 0
KDO2 121154Z 18012KT 26/22 A2993 RMK A01 T02600221  RH  079%=      5-min Rain = 0
KDO2 121155Z 19011KT 26/22 A2993 RMK A01 T02600221  RH  079%=      5-min Rain = 0
KDO2 121156Z 18013KT 26/22 A2993 RMK A01 T02600221  RH  079%=      5-min Rain = 0
KDO2 121157Z 19011KT 26/22 A2993 RMK A01 T02600221  RH  079%=      5-min Rain = 0
KDO2 121158Z 18012KT 26/22 A2993 RMK A01 T02600221  RH  079%=      5-min Rain = 0
KDO2 121159Z 19013KT 26/22 A2993 RMK A01 T02600221  RH  079%=      5-min Rain = 0
KDO2 121200Z 18010KT 26/22 A2993 RMK A01 T02600221  RH  079%=      5-min Rain = 0
KDO2 121201Z 19011KT 26/22 A2993 RMK A01 T02600221  RH  079%=      5-min Rain = 0
KDO2 121202Z 18011KT 26/22 A2993 RMK A01 T02600221  RH  079%=      5-min Rain = 0
KDO2 121203Z 18009KT 26/22 A2993 RMK A01 T02600221  RH  079%=      5-min Rain = 0
KDO2 121204Z 19009KT 26/22 A2993 RMK A01 T02590221  RH  079%=      5-min Rain = 0
KDO2 121205Z 18011KT 26/22 A2993 RMK A01 T02590221  RH  079%=      5-min Rain = 0
KDO2 121206Z 19011KT 26/22 A2993 RMK A01 T02590221  RH  080%=      5-min Rain = 0
KDO2 121207Z 19010KT 26/22 A2993 RMK A01 T02590221  RH  080%=      5-min Rain = 0
KDO2 121208Z 19010KT 26/22 A2993 RMK A01 T02590221  RH  079%=      5-min Rain = 0
KDO2 121209Z 18010KT 26/22 A2993 RMK A01 T02590221  RH  079%=      5-min Rain = 0
KDO2 121210Z 18011KT 26/22 A2993 RMK A01 T02590221  RH  080%=      5-min Rain = 0
KDO2 121211Z 19012KT 26/22 A2993 RMK A01 T02590221  RH  080%=      5-min Rain = 0
KDO2 121212Z 18011KT 26/22 A2993 RMK A01 T02590221  RH  079%=      5-min Rain = 0
KDO2 121213Z 19012G17KT 26/22 A2993 RMK A01 T02590221  RH  079%=      5-min Rain = 0
KDO2 121214Z 19012KT 26/22 A2993 RMK A01 T02600220  RH  079%=      5-min Rain = 0
KDO2 121215Z 18013KT 26/22 A2993 RMK A01 T02600221  RH  079%=      5-min Rain = 0
KDO2 121216Z 19011KT 26/22 A2993 RMK A01 T02600220  RH  079%=      5-min Rain = 0
KDO2 121217Z 19011KT 26/22 A2993 RMK A01 T02600221  RH  079%=      5-min Rain = 0
KDO2 121218Z 19012KT 26/22 A2993 RMK A01 T02600220  RH  079%=      5-min Rain = 0
KDO2 121219Z 20011KT 26/22 A2993 RMK A01 T02600220  RH  079%=      5-min Rain = 0
KDO2 121220Z 19012KT 26/22 A2993 RMK A01 T02600220  RH  079%=      5-min Rain = 0
KDO2 121221Z 18012KT 26/22 A2993 RMK A01 T02600220  RH  079%=      5-min Rain = 0
KDO2 121222Z 19011KT 26/22 A2993 RMK A01 T02600220  RH  079%=      5-min Rain = 0
KDO2 121223Z 19010KT 26/22 A2993 RMK A01 T02600220  RH  079%=      5-min Rain = 0
KDO2 121224Z 18012KT 26/22 A2994 RMK A01 T02600220  RH  079%=      5-min Rain = 0
KDO2 121225Z 19012KT 26/22 A2994 RMK A01 T02600220  RH  079%=      5-min Rain = 0
KDO2 121226Z 19011KT 26/22 A2994 RMK A01 T02610220  RH  078%=      5-min Rain = 0
KDO2 121227Z 18009KT 26/22 A2994 RMK A01 T02610220  RH  078%=      5-min Rain = 0
KDO2 121228Z 18010KT 26/22 A2994 RMK A01 T02610220  RH  078%=      5-min Rain = 0
KDO2 121229Z 19013KT 26/22 A2994 RMK A01 T02610220  RH  078%=      5-min Rain = 0
KDO2 121230Z 19012KT 26/22 A2994 RMK A01 T02610220  RH  078%=      5-min Rain = 0
KDO2 121231Z 18013KT 26/22 A2994 RMK A01 T02610220  RH  078%=      5-min Rain = 0
KDO2 121232Z 18011KT 26/22 A2994 RMK A01 T02620220  RH  078%=      5-min Rain = 0
KDO2 121233Z 18013KT 26/22 A2994 RMK A01 T02620220  RH  078%=      5-min Rain = 0
KDO2 121234Z 18011KT 26/22 A2994 RMK A01 T02620220  RH  078%=      5-min Rain = 0
KDO2 121235Z 18010KT 26/22 A2994 RMK A01 T02620220  RH  078%=      5-min Rain = 0
KDO2 121236Z 19014G19KT 26/22 A2994 RMK A01 T02620220  RH  078%=      5-min Rain = 0
KDO2 121237Z 18013KT 26/22 A2994 RMK A01 T02620220  RH  078%=      5-min Rain = 0
KDO2 121238Z 18010KT 26/22 A2994 RMK A01 T02630220  RH  077%=      5-min Rain = 0
KDO2 121239Z 18009G14KT 26/22 A2994 RMK A01 T02630221  RH  077%=      5-min Rain = 0
KDO2 121240Z 19013KT 26/22 A2994 RMK A01 T02630220  RH  078%=      5-min Rain = 0
KDO2 121241Z 18010KT 26/22 A2994 RMK A01 T02630220  RH  077%=      5-min Rain = 0
KDO2 121242Z 19011KT 26/22 A2994 RMK A01 T02630220  RH  077%=      5-min Rain = 0
KDO2 121243Z 18011KT 26/22 A2994 RMK A01 T02630220  RH  077%=      5-min Rain = 0
KDO2 121244Z 18010KT 26/22 A2994 RMK A01 T02630221  RH  077%=      5-min Rain = 0
KDO2 121245Z 18010KT 26/22 A2994 RMK A01 T02630221  RH  077%=      5-min Rain = 0
KDO2 121246Z 18010G15KT 26/22 A2994 RMK A01 T02630221  RH  077%=      5-min Rain = 0
KDO2 121247Z 18013KT 26/22 A2994 RMK A01 T02630221  RH  077%=      5-min Rain = 0
KDO2 121248Z 18010KT 26/22 A2994 RMK A01 T02630220  RH  077%=      5-min Rain = 0
KDO2 121249Z 17013KT 26/22 A2994 RMK A01 T02640221  RH  077%=      5-min Rain = 0
KDO2 121250Z 17013KT 26/22 A2994 RMK A01 T02640220  RH  077%=      5-min Rain = 0
KDO2 121251Z 18013KT 27/22 A2994 RMK A01 T02650220  RH  077%=      5-min Rain = 0
KDO2 121252Z 18011KT 27/22 A2994 RMK A01 T02650220  RH  077%=      5-min Rain = 0
KDO2 121253Z 18010KT 27/22 A2994 RMK A01 T02650220  RH  077%=      5-min Rain = 0
KDO2 121254Z 18013KT 27/22 A2994 RMK A01 T02650221  RH  077%=      5-min Rain = 0
KDO2 121255Z 18011KT 27/22 A2994 RMK A01 T02650221  RH  076%=      5-min Rain = 0
KDO2 121256Z 19010KT 27/22 A2994 RMK A01 T02660221  RH  076%=      5-min Rain = 0
KDO2 121257Z 19011G16KT 27/22 A2994 RMK A01 T02660221  RH  076%=      5-min Rain = 0
KDO2 121258Z 18013KT 27/22 A2994 RMK A01 T02660220  RH  076%=      5-min Rain = 0
KDO2 121259Z 18013KT 27/22 A2994 RMK A01 T02660220  RH  076%=      5-min Rain = 0
KDO2 121300Z 19014KT 27/22 A2994 RMK A01 T02660220  RH  076%=      5-min Rain = 0
KDO2 121301Z 19012KT 27/22 A2994 RMK A01 T02670221  RH  076%=      5-min Rain = 0
KDO2 121302Z 18011G16KT 27/22 A2994 RMK A01 T02670221  RH  076%=      5-min Rain = 0
KDO2 121303Z 18014KT 27/22 A2994 RMK A01 T02670220  RH  076%=      5-min Rain = 0
KDO2 121304Z 18012KT 27/22 A2994 RMK A01 T02670220  RH  075%=      5-min Rain = 0
KDO2 121305Z 18013KT 27/22 A2994 RMK A01 T02680221  RH  075%=      5-min Rain = 0
KDO2 121306Z 18013KT 27/22 A2994 RMK A01 T02680221  RH  075%=      5-min Rain = 0
KDO2 121307Z 18013KT 27/22 A2994 RMK A01 T02680220  RH  075%=      5-min Rain = 0
KDO2 121308Z 18010G15KT 27/22 A2994 RMK A01 T02690221  RH  075%=      5-min Rain = 0
KDO2 121309Z 19010KT 27/22 A2994 RMK A01 T02680221  RH  075%=      5-min Rain = 0
KDO2 121310Z 19012KT 27/22 A2994 RMK A01 T02690221  RH  075%=      5-min Rain = 0
KDO2 121311Z 19012KT 27/22 A2995 RMK A01 T02690221  RH  075%=      5-min Rain = 0
KDO2 121312Z 19011KT 27/22 A2995 RMK A01 T02690221  RH  075%=      5-min Rain = 0
KDO2 121313Z 19012KT 27/22 A2994 RMK A01 T02700221  RH  074%=      5-min Rain = 0
KDO2 121314Z 19012KT 27/22 A2995 RMK A01 T02700220  RH  074%=      5-min Rain = 0
KDO2 121315Z 19012G17KT 27/22 A2995 RMK A01 T02710221  RH  074%=      5-min Rain = 0
KDO2 121316Z 19015KT 27/22 A2995 RMK A01 T02710220  RH  074%=      5-min Rain = 0
KDO2 121317Z 19015KT 27/22 A2994 RMK A01 T02710220  RH  073%=      5-min Rain = 0
KDO2 121318Z 19017KT 27/22 A2994 RMK A01 T02720219  RH  073%=      5-min Rain = 0
KDO2 121319Z 19013KT 27/22 A2995 RMK A01 T02720219  RH  073%=      5-min Rain = 0
KDO2 121320Z 18012KT 27/22 A2995 RMK A01 T02720220  RH  073%=      5-min Rain = 0
KDO2 121321Z 19011KT 27/22 A2995 RMK A01 T02720221  RH  074%=      5-min Rain = 0
KDO2 121322Z 19011KT 27/22 A2995 RMK A01 T02720221  RH  073%=      5-min Rain = 0
KDO2 121323Z 19012KT 27/22 A2995 RMK A01 T02730221  RH  073%=      5-min Rain = 0
KDO2 121324Z 19015KT 27/22 A2994 RMK A01 T02730220  RH  073%=      5-min Rain = 0
KDO2 121325Z 18015KT 27/22 A2995 RMK A01 T02730219  RH  072%=      5-min Rain = 0
KDO2 121326Z 18013KT 27/22 A2995 RMK A01 T02730219  RH  072%=      5-min Rain = 0
KDO2 121327Z 18011KT 27/22 A2995 RMK A01 T02740220  RH  073%=      5-min Rain = 0
KDO2 121328Z 19012KT 27/22 A2995 RMK A01 T02740221  RH  073%=      5-min Rain = 0
KDO2 121329Z 19011KT 28/22 A2995 RMK A01 T02750221  RH  072%=      5-min Rain = 0
KDO2 121330Z 19012KT 28/22 A2995 RMK A01 T02750220  RH  072%=      5-min Rain = 0
KDO2 121331Z 19013KT 28/22 A2995 RMK A01 T02750220  RH  072%=      5-min Rain = 0
KDO2 121332Z 18012KT 28/22 A2995 RMK A01 T02760220  RH  071%=      5-min Rain = 0
KDO2 121333Z 18014KT 28/22 A2995 RMK A01 T02770219  RH  071%=      5-min Rain = 0
KDO2 121334Z 19015KT 28/22 A2995 RMK A01 T02770219  RH  071%=      5-min Rain = 0
KDO2 121335Z 18012KT 28/22 A2995 RMK A01 T02770219  RH  071%=      5-min Rain = 0
KDO2 121336Z 19012KT 28/22 A2995 RMK A01 T02770220  RH  071%=      5-min Rain = 0
KDO2 121337Z 19014G19KT 28/22 A2995 RMK A01 T02770219  RH  070%=      5-min Rain = 0
KDO2 121338Z 19013G18KT 28/22 A2995 RMK A01 T02780218  RH  070%=      5-min Rain = 0
KDO2 121339Z 18012KT 28/22 A2995 RMK A01 T02780219  RH  070%=      5-min Rain = 0
KDO2 121340Z 19012KT 28/22 A2995 RMK A01 T02790219  RH  070%=      5-min Rain = 0
KDO2 121341Z 18012KT 28/22 A2995 RMK A01 T02800219  RH  069%=      5-min Rain = 0
KDO2 121342Z 18012KT 28/22 A2995 RMK A01 T02800219  RH  070%=      5-min Rain = 0
KDO2 121343Z 18013G18KT 28/22 A2995 RMK A01 T02800218  RH  069%=      5-min Rain = 0
KDO2 121344Z 19012G17KT 28/22 A2995 RMK A01 T02800218  RH  069%=      5-min Rain = 0
KDO2 121345Z 19011KT 28/22 A2995 RMK A01 T02800219  RH  069%=      5-min Rain = 0
KDO2 121346Z 19011KT 28/22 A2995 RMK A01 T02810220  RH  069%=      5-min Rain = 0
KDO2 121347Z 19013KT 28/22 A2996 RMK A01 T02810219  RH  069%=      5-min Rain = 0
KDO2 121348Z 18011KT 28/22 A2996 RMK A01 T02810217  RH  068%=      5-min Rain = 0
KDO2 121349Z 19014G19KT 28/22 A2996 RMK A01 T02810219  RH  069%=      5-min Rain = 0
KDO2 121350Z 20013KT 28/22 A2996 RMK A01 T02820216  RH  067%=      5-min Rain = 0
KDO2 121351Z 19014KT 28/22 A2996 RMK A01 T02820217  RH  068%=      5-min Rain = 0
KDO2 121352Z 19013KT 28/22 A2996 RMK A01 T02820216  RH  067%=      5-min Rain = 0
KDO2 121353Z 18015KT 28/22 A2996 RMK A01 T02820217  RH  068%=      5-min Rain = 0
KDO2 121354Z 18012KT 28/22 A2996 RMK A01 T02820218  RH  068%=      5-min Rain = 0
KDO2 121355Z 19014KT 28/22 A2996 RMK A01 T02830218  RH  068%=      5-min Rain = 0
KDO2 121356Z 18012KT 28/22 A2996 RMK A01 T02830219  RH  068%=      5-min Rain = 0
KDO2 121357Z 18012KT 28/22 A2996 RMK A01 T02840218  RH  068%=      5-min Rain = 0
KDO2 121358Z 19013KT 28/22 A2996 RMK A01 T02840218  RH  068%=      5-min Rain = 0
KDO2 121359Z 19015KT 29/22 A2996 RMK A01 T02850218  RH  067%=      5-min Rain = 0
KDO2 121400Z 19013KT 28/22 A2996 RMK A01 T02840218  RH  067%=      5-min Rain = 0
KDO2 121401Z 19012KT 28/22 A2996 RMK A01 T02840218  RH  067%=      5-min Rain = 0
KDO2 121402Z 19014KT 28/22 A2996 RMK A01 T02840219  RH  068%=      5-min Rain = 0
KDO2 121403Z 19012KT 29/22 A2996 RMK A01 T02850217  RH  067%=      5-min Rain = 0
KDO2 121404Z 20010KT 29/22 A2996 RMK A01 T02850218  RH  067%=      5-min Rain = 0
KDO2 121405Z 19010KT 29/22 A2996 RMK A01 T02850219  RH  067%=      5-min Rain = 0
KDO2 121406Z 18013KT 29/22 A2996 RMK A01 T02860217  RH  066%=      5-min Rain = 0
KDO2 121407Z 19011KT 29/22 A2996 RMK A01 T02860219  RH  067%=      5-min Rain = 0
KDO2 121408Z 19015KT 29/22 A2996 RMK A01 T02860217  RH  066%=      5-min Rain = 0
KDO2 121409Z 19014KT 29/22 A2997 RMK A01 T02860216  RH  066%=      5-min Rain = 0
KDO2 121410Z 19014KT 29/22 A2997 RMK A01 T02870217  RH  066%=      5-min Rain = 0
KDO2 121411Z 19012KT 29/22 A2997 RMK A01 T02870216  RH  066%=      5-min Rain = 0
KDO2 121412Z 18007KT 29/22 A2997 RMK A01 T02870219  RH  067%=      5-min Rain = 0
KDO2 121413Z 19006KT 29/22 A2997 RMK A01 T02870219  RH  066%=      5-min Rain = 0
KDO2 121414Z 19008KT 29/22 A2997 RMK A01 T02880220  RH  066%=      5-min Rain = 0
KDO2 121415Z 18011KT 29/22 A2997 RMK A01 T02900220  RH  066%=      5-min Rain = 0
KDO2 121416Z 18011KT 29/22 A2997 RMK A01 T02900217  RH  065%=      5-min Rain = 0
KDO2 121417Z 18013KT 29/22 A2997 RMK A01 T02900217  RH  065%=      5-min Rain = 0
KDO2 121418Z 18010KT 29/22 A2997 RMK A01 T02900217  RH  065%=      5-min Rain = 0
KDO2 121419Z 19009KT 29/22 A2997 RMK A01 T02900218  RH  065%=      5-min Rain = 0
KDO2 121420Z 19010KT 29/22 A2997 RMK A01 T02900218  RH  065%=      5-min Rain = 0
KDO2 121421Z 18010KT 29/22 A2997 RMK A01 T02900218  RH  065%=      5-min Rain = 0
KDO2 121422Z 19012KT 29/22 A2997 RMK A01 T02900217  RH  065%=      5-min Rain = 0
KDO2 121423Z 19013KT 29/22 A2997 RMK A01 T02900215  RH  064%=      5-min Rain = 0
KDO2 121424Z 19011KT 29/22 A2998 RMK A01 T02900215  RH  064%=      5-min Rain = 0
KDO2 121425Z 19012KT 29/22 A2997 RMK A01 T02900215  RH  064%=      5-min Rain = 0
KDO2 121426Z 19011KT 29/22 A2998 RMK A01 T02900216  RH  064%=      5-min Rain = 0
KDO2 121427Z 18010KT 29/22 A2998 RMK A01 T02900215  RH  064%=      5-min Rain = 0
KDO2 121428Z 20010KT 29/22 A2998 RMK A01 T02910217  RH  064%=      5-min Rain = 0
KDO2 121429Z 20009KT 29/22 A2998 RMK A01 T02910216  RH  064%=      5-min Rain = 0
KDO2 121430Z 20010KT 29/22 A2998 RMK A01 T02920217  RH  064%=      5-min Rain = 0
KDO2 121431Z 20011KT 29/22 A2998 RMK A01 T02920216  RH  063%=      5-min Rain = 0
KDO2 121432Z 20008KT 29/22 A2998 RMK A01 T02930218  RH  064%=      5-min Rain = 0
KDO2 121433Z 19009KT 29/22 A2998 RMK A01 T02940219  RH  064%=      5-min Rain = 0
KDO2 121434Z 17010KT 30/22 A2998 RMK A01 T02950216  RH  063%=      5-min Rain = 0
KDO2 121435Z 17012KT 30/22 A2998 RMK A01 T02950216  RH  062%=      5-min Rain = 0
KDO2 121436Z 19012KT 30/21 A2997 RMK A01 T02960214  RH  062%=      5-min Rain = 0
KDO2 121437Z 18010KT 30/22 A2997 RMK A01 T02950215  RH  062%=      5-min Rain = 0
KDO2 121438Z 18012KT 30/22 A2997 RMK A01 T02960215  RH  062%=      5-min Rain = 0
KDO2 121439Z 20010KT 30/21 A2997 RMK A01 T02950214  RH  061%=      5-min Rain = 0
KDO2 121440Z 19011KT 30/22 A2997 RMK A01 T02960215  RH  062%=      5-min Rain = 0
KDO2 121441Z 18010KT 30/21 A2997 RMK A01 T02960213  RH  061%=      5-min Rain = 0
KDO2 121442Z 20010G15KT 30/22 A2997 RMK A01 T02970215  RH  062%=      5-min Rain = 0
KDO2 121443Z 20011KT 30/21 A2997 RMK A01 T02980214  RH  061%=      5-min Rain = 0
KDO2 121444Z 20011KT 30/21 A2997 RMK A01 T02980214  RH  061%=      5-min Rain = 0
KDO2 121445Z 19012KT 30/21 A2997 RMK A01 T02980212  RH  060%=      5-min Rain = 0
KDO2 121446Z 19010KT 30/21 A2997 RMK A01 T02980209  RH  059%=      5-min Rain = 0
KDO2 121447Z 20013KT 30/21 A2997 RMK A01 T02970211  RH  060%=      5-min Rain = 0
KDO2 121448Z 19010KT 30/21 A2997 RMK A01 T02970211  RH  060%=      5-min Rain = 0
KDO2 121449Z 18009KT 30/21 A2997 RMK A01 T02970211  RH  060%=      5-min Rain = 0
KDO2 121450Z 17010KT 30/21 A2997 RMK A01 T02990213  RH  060%=      5-min Rain = 0
KDO2 121451Z 17012KT 30/21 A2997 RMK A01 T03000210  RH  059%=      5-min Rain = 0
KDO2 121452Z 17009KT 30/21 A2997 RMK A01 T03000210  RH  059%=      5-min Rain = 0
KDO2 121453Z 17011KT 30/21 A2997 RMK A01 T03000211  RH  059%=      5-min Rain = 0
KDO2 121454Z 18009KT 30/21 A2997 RMK A01 T03000214  RH  060%=      5-min Rain = 0
KDO2 121455Z 18011KT 30/21 A2997 RMK A01 T03010210  RH  058%=      5-min Rain = 0
KDO2 121456Z 17006KT 30/21 A2997 RMK A01 T03010210  RH  058%=      5-min Rain = 0
KDO2 121457Z 17006KT 30/21 A2997 RMK A01 T03020214  RH  059%=      5-min Rain = 0
KDO2 121458Z 17009KT 30/21 A2997 RMK A01 T03040214  RH  059%=      5-min Rain = 0
KDO2 121459Z 17009KT 30/21 A2997 RMK A01 T03040212  RH  058%=      5-min Rain = 0
KDO2 121500Z 19009KT 30/21 A2997 RMK A01 T03040212  RH  058%=      5-min Rain = 0
KDO2 121501Z 18010KT 31/21 A2997 RMK A01 T03060212  RH  057%=      5-min Rain = 0
KDO2 121502Z 18010KT 31/21 A2997 RMK A01 T03050210  RH  057%=      5-min Rain = 0
KDO2 121503Z 16010KT 31/21 A2997 RMK A01 T03050209  RH  057%=      5-min Rain = 0
KDO2 121504Z 18009KT 31/21 A2997 RMK A01 T03050210  RH  057%=      5-min Rain = 0
KDO2 121505Z 17008KT 31/21 A2997 RMK A01 T03050214  RH  058%=      5-min Rain = 0
KDO2 121506Z 19008KT 31/21 A2997 RMK A01 T03050211  RH  057%=      5-min Rain = 0
KDO2 121507Z 16008KT 31/21 A2997 RMK A01 T03050213  RH  058%=      5-min Rain = 0
KDO2 121508Z 17008KT 31/21 A2997 RMK A01 T03060213  RH  057%=      5-min Rain = 0
KDO2 121509Z 18006KT 31/21 A2997 RMK A01 T03070212  RH  057%=      5-min Rain = 0
KDO2 121510Z 16006KT 31/21 A2997 RMK A01 T03080214  RH  057%=      5-min Rain = 0
KDO2 121511Z 16008KT 31/21 A2997 RMK A01 T03090211  RH  056%=      5-min Rain = 0
KDO2 121512Z 17010KT 31/21 A2997 RMK A01 T03100210  RH  055%=      5-min Rain = 0
KDO2 121513Z 17011KT 31/21 A2997 RMK A01 T03100210  RH  055%=      5-min Rain = 0
KDO2 121514Z 16010KT 31/21 A2997 RMK A01 T03100211  RH  056%=      5-min Rain = 0
KDO2 121515Z 16011KT 31/21 A2997 RMK A01 T03100212  RH  056%=      5-min Rain = 0
KDO2 121516Z 17010KT 31/21 A2996 RMK A01 T03100209  RH  055%=      5-min Rain = 0
KDO2 121517Z 17010KT 31/21 A2997 RMK A01 T03100211  RH  056%=      5-min Rain = 0
KDO2 121518Z 18009KT 31/21 A2997 RMK A01 T03110208  RH  054%=      5-min Rain = 0
KDO2 121519Z 18007KT 31/21 A2996 RMK A01 T03100213  RH  056%=      5-min Rain = 0
KDO2 121520Z 18011KT 31/22 A2996 RMK A01 T03120216  RH  056%=      5-min Rain = 0
KDO2 121521Z 17012KT 31/21 A2996 RMK A01 T03140207  RH  053%=      5-min Rain = 0
KDO2 121522Z 18010KT 31/21 A2996 RMK A01 T03130209  RH  054%=      5-min Rain = 0
KDO2 121523Z 18010KT 31/21 A2996 RMK A01 T03130211  RH  055%=      5-min Rain = 0
KDO2 121524Z 17012KT 31/21 A2997 RMK A01 T03140209  RH  054%=      5-min Rain = 0
KDO2 121525Z 16010KT 31/21 A2997 RMK A01 T03130209  RH  054%=      5-min Rain = 0
KDO2 121526Z 17010KT 31/21 A2997 RMK A01 T03130208  RH  054%=      5-min Rain = 0
KDO2 121527Z 18014KT 31/21 A2996 RMK A01 T03130206  RH  053%=      5-min Rain = 0
KDO2 121528Z 18012KT 31/21 A2997 RMK A01 T03130207  RH  053%=      5-min Rain = 0
KDO2 121529Z 18015KT 31/21 A2997 RMK A01 T03130205  RH  053%=      5-min Rain = 0
KDO2 121530Z 17012KT 31/21 A2997 RMK A01 T03130205  RH  053%=      5-min Rain = 0
KDO2 121531Z 18012KT 31/21 A2997 RMK A01 T03140208  RH  053%=      5-min Rain = 0
KDO2 121532Z 19014KT 31/21 A2997 RMK A01 T03140207  RH  053%=      5-min Rain = 0
KDO2 121533Z 17012KT 31/21 A2997 RMK A01 T03140205  RH  052%=      5-min Rain = 0
KDO2 121534Z 19011KT 31/21 A2997 RMK A01 T03140206  RH  053%=      5-min Rain = 0
KDO2 121535Z 20010KT 32/21 A2997 RMK A01 T03150209  RH  053%=      5-min Rain = 0
KDO2 121536Z 20012KT 32/21 A2997 RMK A01 T03150206  RH  052%=      5-min Rain = 0
KDO2 121537Z 20008KT 32/21 A2997 RMK A01 T03150209  RH  053%=      5-min Rain = 0
KDO2 121538Z 20010KT 32/21 A2997 RMK A01 T03170210  RH  053%=      5-min Rain = 0
KDO2 121539Z 18005KT 32/21 A2997 RMK A01 T03190213  RH  054%=      5-min Rain = 0
KDO2 121540Z 18008G14KT 32/21 A2997 RMK A01 T03200209  RH  052%=      5-min Rain = 0
KDO2 121541Z 17011KT 32/21 A2997 RMK A01 T03200212  RH  053%=      5-min Rain = 0
KDO2 121542Z 16011KT 32/21 A2997 RMK A01 T03210210  RH  052%=      5-min Rain = 0
KDO2 121543Z 16011KT 32/21 A2997 RMK A01 T03210210  RH  052%=      5-min Rain = 0
KDO2 121544Z 16009KT 32/21 A2997 RMK A01 T03210213  RH  053%=      5-min Rain = 0
KDO2 121545Z 16008KT 32/21 A2997 RMK A01 T03210211  RH  052%=      5-min Rain = 0
KDO2 121546Z 16011KT 32/21 A2997 RMK A01 T03220212  RH  052%=      5-min Rain = 0
KDO2 121547Z 16010KT 32/21 A2996 RMK A01 T03230209  RH  051%=      5-min Rain = 0
KDO2 121548Z 17011KT 32/21 A2996 RMK A01 T03230209  RH  051%=      5-min Rain = 0
KDO2 121549Z 17009KT 32/21 A2996 RMK A01 T03220207  RH  051%=      5-min Rain = 0
KDO2 121550Z 18008G13KT 32/21 A2997 RMK A01 T03210210  RH  052%=      5-min Rain = 0
KDO2 121551Z 18007KT 32/21 A2997 RMK A01 T03240213  RH  052%=      5-min Rain = 0
KDO2 121552Z 17010KT 33/21 A2996 RMK A01 T03250213  RH  052%=      5-min Rain = 0
KDO2 121553Z 17010KT 33/21 A2997 RMK A01 T03250207  RH  050%=      5-min Rain = 0
KDO2 121554Z 17009KT 32/21 A2996 RMK A01 T03240209  RH  051%=      5-min Rain = 0
KDO2 121555Z 16008KT 32/21 A2996 RMK A01 T03230210  RH  051%=      5-min Rain = 0
KDO2 121556Z 18010KT 32/21 A2997 RMK A01 T03240210  RH  051%=      5-min Rain = 0
KDO2 121557Z 17009KT 32/21 A2997 RMK A01 T03240211  RH  051%=      5-min Rain = 0
KDO2 121558Z 15010KT 32/21 A2996 RMK A01 T03240209  RH  051%=      5-min Rain = 0
KDO2 121559Z 16008KT 32/21 A2997 RMK A01 T03240210  RH  051%=      5-min Rain = 0
KDO2 121600Z 18009KT 33/21 A2996 RMK A01 T03250211  RH  051%=      5-min Rain = 0
KDO2 121601Z 17009KT 33/21 A2997 RMK A01 T03260209  RH  050%=      5-min Rain = 0
KDO2 121602Z 16008KT 33/21 A2997 RMK A01 T03260210  RH  051%=      5-min Rain = 0
KDO2 121603Z 16008KT 33/21 A2996 RMK A01 T03260212  RH  051%=      5-min Rain = 0
KDO2 121604Z 16009KT 33/21 A2996 RMK A01 T03270209  RH  050%=      5-min Rain = 0
KDO2 121605Z 17008KT 33/21 A2996 RMK A01 T03280208  RH  049%=      5-min Rain = 0
KDO2 121606Z 16008KT 33/21 A2996 RMK A01 T03280208  RH  049%=      5-min Rain = 0
KDO2 121607Z 18012KT 33/21 A2996 RMK A01 T03290209  RH  049%=      5-min Rain = 0
KDO2 121608Z 18012KT 33/21 A2996 RMK A01 T03290207  RH  049%=      5-min Rain = 0
KDO2 121609Z 18012KT 33/21 A2996 RMK A01 T03290205  RH  048%=      5-min Rain = 0
KDO2 121610Z 19013KT 33/21 A2996 RMK A01 T03280207  RH  049%=      5-min Rain = 0
KDO2 121611Z 19014KT 33/20 A2996 RMK A01 T03280204  RH  048%=      5-min Rain = 0
KDO2 121612Z 19011KT 33/21 A2996 RMK A01 T03280207  RH  049%=      5-min Rain = 0
KDO2 121613Z 19011KT 33/21 A2996 RMK A01 T03280205  RH  048%=      5-min Rain = 0
KDO2 121614Z 19011KT 33/20 A2996 RMK A01 T03280204  RH  048%=      5-min Rain = 0
KDO2 121615Z 20012KT 33/21 A2996 RMK A01 T03280206  RH  049%=      5-min Rain = 0
KDO2 121616Z 21011KT 33/20 A2996 RMK A01 T03290204  RH  048%=      5-min Rain = 0
KDO2 121617Z 21011KT 33/21 A2996 RMK A01 T03300205  RH  048%=      5-min Rain = 0
KDO2 121618Z 21014KT 33/20 A2996 RMK A01 T03310203  RH  047%=      5-min Rain = 0
KDO2 121619Z 21013KT 33/20 A2997 RMK A01 T03320203  RH  047%=      5-min Rain = 0
KDO2 121620Z 20011KT 33/20 A2997 RMK A01 T03320203  RH  047%=      5-min Rain = 0
KDO2 121621Z 21011KT 33/20 A2997 RMK A01 T03330204  RH  047%=      5-min Rain = 0
KDO2 121622Z 22013KT 33/20 A2997 RMK A01 T03330204  RH  047%=      5-min Rain = 0
KDO2 121623Z 22012KT 33/20 A2997 RMK A01 T03330203  RH  047%=      5-min Rain = 0
KDO2 121624Z 22010KT 33/20 A2997 RMK A01 T03330204  RH  047%=      5-min Rain = 0
KDO2 121625Z 21006KT 33/21 A2997 RMK A01 T03320206  RH  048%=      5-min Rain = 0
KDO2 121626Z 18007KT 33/21 A2997 RMK A01 T03330210  RH  049%=      5-min Rain = 0
KDO2 121627Z 17011KT 34/21 A2997 RMK A01 T03350206  RH  047%=      5-min Rain = 0
KDO2 121628Z 19009G14KT 34/21 A2997 RMK A01 T03350208  RH  047%=      5-min Rain = 0
KDO2 121629Z 18012KT 34/21 A2997 RMK A01 T03370208  RH  047%=      5-min Rain = 0
KDO2 121630Z 19012KT 34/21 A2997 RMK A01 T03380205  RH  046%=      5-min Rain = 0
KDO2 121631Z 20010KT 34/20 A2997 RMK A01 T03370204  RH  046%=      5-min Rain = 0
KDO2 121632Z 19008KT 34/21 A2997 RMK A01 T03370208  RH  047%=      5-min Rain = 0
KDO2 121633Z 20008G13KT 34/21 A2997 RMK A01 T03380207  RH  046%=      5-min Rain = 0
KDO2 121634Z 21008KT 34/21 A2997 RMK A01 T03390206  RH  046%=      5-min Rain = 0
KDO2 121635Z 21011KT 34/20 A2997 RMK A01 T03390200  RH  044%=      5-min Rain = 0
KDO2 121636Z 21009KT 34/20 A2997 RMK A01 T03380203  RH  045%=      5-min Rain = 0
KDO2 121637Z 22011KT 34/20 A2997 RMK A01 T03380203  RH  045%=      5-min Rain = 0
KDO2 121638Z 23011KT 34/20 A2997 RMK A01 T03380201  RH  044%=      5-min Rain = 0
KDO2 121639Z 22009KT 34/20 A2997 RMK A01 T03380200  RH  044%=      5-min Rain = 0
KDO2 121640Z 23009KT 34/20 A2996 RMK A01 T03380203  RH  045%=      5-min Rain = 0
KDO2 121641Z 21010KT 34/20 A2996 RMK A01 T03390202  RH  045%=      5-min Rain = 0
KDO2 121642Z 22008KT 34/21 A2996 RMK A01 T03400206  RH  046%=      5-min Rain = 0
KDO2 121643Z 20010KT 34/21 A2996 RMK A01 T03400207  RH  046%=      5-min Rain = 0
KDO2 121644Z 19011KT 34/20 A2996 RMK A01 T03420204  RH  044%=      5-min Rain = 0
KDO2 121645Z 20010KT 34/20 A2996 RMK A01 T03410203  RH  044%=      5-min Rain = 0
KDO2 121646Z 19010G15KT 34/21 A2996 RMK A01 T03400205  RH  045%=      5-min Rain = 0
KDO2 121647Z 18014KT 34/20 A2996 RMK A01 T03420201  RH  044%=      5-min Rain = 0
KDO2 121648Z 18013KT 34/20 A2996 RMK A01 T03410198  RH  043%=      5-min Rain = 0
KDO2 121649Z 18015KT 34/20 A2996 RMK A01 T03400199  RH  044%=      5-min Rain = 0
KDO2 121650Z 18013KT 34/20 A2996 RMK A01 T03400199  RH  043%=      5-min Rain = 0
KDO2 121651Z 20009KT 34/20 A2996 RMK A01 T03400201  RH  044%=      5-min Rain = 0
KDO2 121652Z 18009KT 34/20 A2996 RMK A01 T03410198  RH  043%=      5-min Rain = 0
KDO2 121653Z 20012KT 34/20 A2996 RMK A01 T03410200  RH  044%=      5-min Rain = 0
KDO2 121654Z 21010KT 34/20 A2996 RMK A01 T03410197  RH  043%=      5-min Rain = 0
KDO2 121655Z 21012KT 34/20 A2996 RMK A01 T03410199  RH  043%=      5-min Rain = 0
KDO2 121656Z 21012KT 34/20 A2996 RMK A01 T03420196  RH  042%=      5-min Rain = 0
KDO2 121657Z 20011KT 34/20 A2996 RMK A01 T03410199  RH  043%=      5-min Rain = 0
KDO2 121658Z 22011KT 34/20 A2996 RMK A01 T03410200  RH  044%=      5-min Rain = 0
KDO2 121659Z 22013G18KT 34/20 A2996 RMK A01 T03420199  RH  043%=      5-min Rain = 0
KDO2 121700Z 20014KT 34/20 A2996 RMK A01 T03430198  RH  043%=      5-min Rain = 0
KDO2 121701Z 21013KT 34/20 A2996 RMK A01 T03430197  RH  042%=      5-min Rain = 0
KDO2 121702Z 21015KT 34/20 A2996 RMK A01 T03430197  RH  042%=      5-min Rain = 0
KDO2 121703Z 21012KT 34/20 A2996 RMK A01 T03440196  RH  042%=      5-min Rain = 0
KDO2 121704Z 22012KT 35/20 A2996 RMK A01 T03450199  RH  043%=      5-min Rain = 0
KDO2 121705Z 22009KT 35/20 A2996 RMK A01 T03450195  RH  041%=      5-min Rain = 0
KDO2 121706Z 23008KT 35/20 A2996 RMK A01 T03450198  RH  042%=      5-min Rain = 0
KDO2 121707Z 21011KT 35/20 A2996 RMK A01 T03470200  RH  042%=      5-min Rain = 0
KDO2 121708Z 22012KT 35/20 A2996 RMK A01 T03480200  RH  042%=      5-min Rain = 0
KDO2 121709Z 22012KT 35/20 A2996 RMK A01 T03480197  RH  041%=      5-min Rain = 0
KDO2 121710Z 22009KT 35/20 A2996 RMK A01 T03470196  RH  041%=      5-min Rain = 0
KDO2 121711Z 19010KT 35/20 A2996 RMK A01 T03460199  RH  042%=      5-min Rain = 0
KDO2 121712Z 20010KT 35/20 A2996 RMK A01 T03480199  RH  042%=      5-min Rain = 0
KDO2 121713Z 21012KT 35/20 A2996 RMK A01 T03490197  RH  041%=      5-min Rain = 0
KDO2 121714Z 21012KT 35/19 A2996 RMK A01 T03490192  RH  040%=      5-min Rain = 0
KDO2 121715Z 20013KT 35/20 A2996 RMK A01 T03470197  RH  041%=      5-min Rain = 0
KDO2 121716Z 20011KT 35/19 A2995 RMK A01 T03480193  RH  040%=      5-min Rain = 0
KDO2 121717Z 21012KT 35/19 A2995 RMK A01 T03480194  RH  040%=      5-min Rain = 0
KDO2 121718Z 23012KT 35/20 A2995 RMK A01 T03490196  RH  041%=      5-min Rain = 0
KDO2 121719Z 23012KT 35/20 A2995 RMK A01 T03500197  RH  041%=      5-min Rain = 0
KDO2 121720Z 22012KT 35/19 A2995 RMK A01 T03510192  RH  039%=      5-min Rain = 0
KDO2 121721Z 23011KT 35/19 A2995 RMK A01 T03500190  RH  039%=      5-min Rain = 0
KDO2 121722Z 22011G19KT 35/19 A2995 RMK A01 T03500191  RH  039%=      5-min Rain = 0
KDO2 121723Z 20016KT 35/20 A2995 RMK A01 T03510195  RH  040%=      5-min Rain = 0
KDO2 121724Z 20013KT 35/20 A2995 RMK A01 T03520195  RH  040%=      5-min Rain = 0
KDO2 121725Z 20011KT 35/20 A2995 RMK A01 T03520195  RH  040%=      5-min Rain = 0
KDO2 121726Z 21012KT 35/20 A2995 RMK A01 T03520195  RH  040%=      5-min Rain = 0
KDO2 121727Z 21010KT 35/20 A2995 RMK A01 T03520197  RH  040%=      5-min Rain = 0
KDO2 121728Z 20012KT 35/20 A2995 RMK A01 T03520196  RH  040%=      5-min Rain = 0
KDO2 121729Z 21012KT 35/20 A2995 RMK A01 T03530200  RH  041%=      5-min Rain = 0
KDO2 121730Z 19011KT 36/20 A2995 RMK A01 T03560196  RH  039%=      5-min Rain = 0
KDO2 121731Z 20009KT 36/19 A2995 RMK A01 T03560193  RH  039%=      5-min Rain = 0
KDO2 121732Z 22010KT 36/19 A2995 RMK A01 T03550194  RH  039%=      5-min Rain = 0
KDO2 121733Z 21009KT 35/19 A2995 RMK A01 T03540194  RH  039%=      5-min Rain = 0
KDO2 121734Z 19010KT 36/20 A2995 RMK A01 T03550198  RH  040%=      5-min Rain = 0
KDO2 121735Z 18011KT 36/20 A2995 RMK A01 T03580203  RH  040%=      5-min Rain = 0
KDO2 121736Z 20010KT 36/20 A2995 RMK A01 T03600198  RH  039%=      5-min Rain = 0
KDO2 121737Z 20013KT 36/20 A2995 RMK A01 T03600197  RH  039%=      5-min Rain = 0
KDO2 121738Z 19011KT 36/19 A2995 RMK A01 T03590191  RH  038%=      5-min Rain = 0
KDO2 121739Z 19013KT 36/19 A2995 RMK A01 T03570193  RH  038%=      5-min Rain = 0
KDO2 121740Z 21011KT 36/19 A2995 RMK A01 T03560191  RH  038%=      5-min Rain = 0
KDO2 121741Z 19008KT 36/19 A2995 RMK A01 T03550194  RH  039%=      5-min Rain = 0
KDO2 121742Z 18009KT 36/19 A2995 RMK A01 T03570194  RH  039%=      5-min Rain = 0
KDO2 121743Z 16008KT 36/19 A2995 RMK A01 T03570186  RH  036%=      5-min Rain = 0
KDO2 121744Z 19008G13KT 36/19 A2995 RMK A01 T03560194  RH  039%=      5-min Rain = 0
KDO2 121745Z 21013KT 36/20 A2995 RMK A01 T03570196  RH  039%=      5-min Rain = 0
KDO2 121746Z 21011KT 36/19 A2995 RMK A01 T03570193  RH  038%=      5-min Rain = 0
KDO2 121747Z 20010KT 36/20 A2995 RMK A01 T03560195  RH  039%=      5-min Rain = 0
KDO2 121748Z 18011KT 36/20 A2995 RMK A01 T03570195  RH  039%=      5-min Rain = 0
KDO2 121749Z 19013KT 36/20 A2995 RMK A01 T03580195  RH  039%=      5-min Rain = 0
KDO2 121750Z 18011KT 36/19 A2995 RMK A01 T03590190  RH  037%=      5-min Rain = 0
KDO2 121751Z 19010KT 36/19 A2995 RMK A01 T03580190  RH  037%=      5-min Rain = 0
KDO2 121752Z 19010KT 36/19 A2995 RMK A01 T03570188  RH  037%=      5-min Rain = 0
KDO2 121753Z 21010KT 36/19 A2994 RMK A01 T03580192  RH  038%=      5-min Rain = 0
KDO2 121754Z 20009KT 36/19 A2994 RMK A01 T03610193  RH  038%=      5-min Rain = 0
KDO2 121755Z 20008KT 36/19 A2994 RMK A01 T03620194  RH  037%=      5-min Rain = 0
KDO2 121756Z 18012KT 36/19 A2994 RMK A01 T03630187  RH  036%=      5-min Rain = 0
KDO2 121757Z 17013KT 36/19 A2994 RMK A01 T03630186  RH  036%=      5-min Rain = 0
KDO2 121758Z 17014KT 36/19 A2994 RMK A01 T03620192  RH  037%=      5-min Rain = 0
KDO2 121759Z 16014KT 36/19 A2994 RMK A01 T03620190  RH  036%=      5-min Rain = 0
KDO2 121800Z 17011KT 36/19 A2994 RMK A01 T03620189  RH  036%=      5-min Rain = 0
KDO2 121801Z 17010KT 36/19 A2994 RMK A01 T03620190  RH  037%=      5-min Rain = 0
KDO2 121802Z 18012KT 36/19 A2994 RMK A01 T03630191  RH  037%=      5-min Rain = 0
KDO2 121803Z 17010KT 36/19 A2994 RMK A01 T03640193  RH  037%=      5-min Rain = 0
KDO2 121804Z 16009KT 36/19 A2994 RMK A01 T03640191  RH  036%=      5-min Rain = 0
KDO2 121805Z 17011KT 37/19 A2994 RMK A01 T03650193  RH  037%=      5-min Rain = 0
KDO2 121806Z 17011KT 37/19 A2994 RMK A01 T03650190  RH  036%=      5-min Rain = 0
KDO2 121807Z 17013KT 37/19 A2994 RMK A01 T03650189  RH  036%=      5-min Rain = 0
KDO2 121808Z 17012KT 37/19 A2994 RMK A01 T03650186  RH  035%=      5-min Rain = 0
KDO2 121809Z 18012KT 36/19 A2994 RMK A01 T03640187  RH  035%=      5-min Rain = 0
KDO2 121810Z 19009KT 36/19 A2994 RMK A01 T03640187  RH  036%=      5-min Rain = 0
KDO2 121811Z 19012KT 37/19 A2994 RMK A01 T03650188  RH  035%=      5-min Rain = 0
KDO2 121812Z 18012KT 37/19 A2994 RMK A01 T03660190  RH  036%=      5-min Rain = 0
KDO2 121813Z 17010KT 37/19 A2994 RMK A01 T03660190  RH  036%=      5-min Rain = 0
KDO2 121814Z 14006KT 37/19 A2994 RMK A01 T03660187  RH  035%=      5-min Rain = 0
KDO2 121815Z 16009G16KT 36/19 A2994 RMK A01 T03640187  RH  035%=      5-min Rain = 0
KDO2 121816Z 18013KT 36/19 A2994 RMK A01 T03640190  RH  036%=      5-min Rain = 0
KDO2 121817Z 19009KT 37/19 A2994 RMK A01 T03660192  RH  036%=      5-min Rain = 0
KDO2 121818Z 18008KT 37/19 A2994 RMK A01 T03680188  RH  035%=      5-min Rain = 0
KDO2 121819Z 18010KT 37/19 A2994 RMK A01 T03700186  RH  034%=      5-min Rain = 0
KDO2 121820Z 19012KT 37/18 A2994 RMK A01 T03710184  RH  034%=      5-min Rain = 0
KDO2 121821Z 18011G17KT 37/19 A2994 RMK A01 T03700187  RH  034%=      5-min Rain = 0
KDO2 121822Z 18012KT 37/19 A2994 RMK A01 T03680190  RH  035%=      5-min Rain = 0
KDO2 121823Z 20010KT 37/19 A2994 RMK A01 T03670188  RH  035%=      5-min Rain = 0
KDO2 121824Z 21010KT 37/19 A2994 RMK A01 T03660186  RH  035%=      5-min Rain = 0
KDO2 121825Z 21009G14KT 36/19 A2993 RMK A01 T03640187  RH  035%=      5-min Rain = 0
KDO2 121826Z 19012KT 36/19 A2993 RMK A01 T03640191  RH  036%=      5-min Rain = 0
KDO2 121827Z 16009KT 37/20 A2993 RMK A01 T03680196  RH  037%=      5-min Rain = 0
KDO2 121828Z 15010KT 37/19 A2993 RMK A01 T03700192  RH  035%=      5-min Rain = 0
KDO2 121829Z 16011KT 37/19 A2993 RMK A01 T03700187  RH  034%=      5-min Rain = 0
KDO2 121830Z 15009KT 37/19 A2993 RMK A01 T03700186  RH  034%=      5-min Rain = 0
KDO2 121831Z 15009KT 37/18 A2993 RMK A01 T03700181  RH  033%=      5-min Rain = 0
KDO2 121832Z 16009KT 37/19 A2994 RMK A01 T03700189  RH  035%=      5-min Rain = 0
KDO2 121833Z 19008KT 37/19 A2994 RMK A01 T03710192  RH  035%=      5-min Rain = 0
KDO2 121834Z 19008KT 37/19 A2993 RMK A01 T03710193  RH  035%=      5-min Rain = 0
KDO2 121835Z 18007KT 37/19 A2993 RMK A01 T03710194  RH  036%=      5-min Rain = 0
KDO2 121836Z 18006KT 37/19 A2993 RMK A01 T03730193  RH  035%=      5-min Rain = 0
KDO2 121837Z 19009KT 37/19 A2993 RMK A01 T03730188  RH  034%=      5-min Rain = 0
KDO2 121838Z 16010G15KT 37/19 A2993 RMK A01 T03720189  RH  034%=      5-min Rain = 0
KDO2 121839Z 16011KT 37/18 A2993 RMK A01 T03710182  RH  033%=      5-min Rain = 0
KDO2 121840Z 16012KT 37/18 A2993 RMK A01 T03710179  RH  032%=      5-min Rain = 0
KDO2 121841Z 15010KT 37/18 A2993 RMK A01 T03700179  RH  033%=      5-min Rain = 0
KDO2 121842Z 17008KT 37/18 A2993 RMK A01 T03700180  RH  033%=      5-min Rain = 0
KDO2 121843Z 16008KT 37/18 A2993 RMK A01 T03690178  RH  033%=      5-min Rain = 0
KDO2 121844Z 15007KT 37/18 A2993 RMK A01 T03680178  RH  033%=      5-min Rain = 0
KDO2 121845Z 16007KT 37/18 A2993 RMK A01 T03670183  RH  034%=      5-min Rain = 0
KDO2 121846Z 17007KT 37/19 A2993 RMK A01 T03670185  RH  035%=      5-min Rain = 0
KDO2 121847Z 14007KT 37/18 A2993 RMK A01 T03680183  RH  034%=      5-min Rain = 0
KDO2 121848Z 17003KT 37/18 A2993 RMK A01 T03690181  RH  033%=      5-min Rain = 0
KDO2 121849Z 17007KT 37/17 A2993 RMK A01 T03690174  RH  032%=      5-min Rain = 0
KDO2 121850Z 16013KT 37/18 A2993 RMK A01 T03680176  RH  032%=      5-min Rain = 0
KDO2 121851Z 17012KT 37/18 A2993 RMK A01 T03690178  RH  033%=      5-min Rain = 0
KDO2 121852Z 15013KT 37/18 A2993 RMK A01 T03710179  RH  032%=      5-min Rain = 0
KDO2 121853Z 13011KT 37/18 A2993 RMK A01 T03720177  RH  032%=      5-min Rain = 0
KDO2 121854Z 14008KT 37/18 A2992 RMK A01 T03720181  RH  033%=      5-min Rain = 0
KDO2 121855Z 12010KT 37/18 A2992 RMK A01 T03740180  RH  032%=      5-min Rain = 0
KDO2 121856Z 11010KT 37/18 A2992 RMK A01 T03740176  RH  031%=      5-min Rain = 0
KDO2 121857Z 12008KT 37/18 A2992 RMK A01 T03740176  RH  031%=      5-min Rain = 0
KDO2 121858Z 15004KT 37/18 A2992 RMK A01 T03730182  RH  033%=      5-min Rain = 0
KDO2 121859Z 16008G13KT 38/18 A2992 RMK A01 T03750181  RH  032%=      5-min Rain = 0
KDO2 121900Z 16009KT 38/17 A2992 RMK A01 T03770170  RH  030%=      5-min Rain = 0
KDO2 121901Z 19012KT 38/17 A2992 RMK A01 T03770169  RH  030%=      5-min Rain = 0
KDO2 121902Z 18010KT 38/17 A2992 RMK A01 T03760170  RH  030%=      5-min Rain = 0
KDO2 121903Z 19010KT 38/17 A2992 RMK A01 T03760168  RH  030%=      5-min Rain = 0
KDO2 121904Z 19010KT 38/18 A2992 RMK A01 T03750176  RH  031%=      5-min Rain = 0
KDO2 121905Z 17006KT 38/17 A2992 RMK A01 T03760174  RH  031%=      5-min Rain = 0
KDO2 121906Z 17004KT 38/18 A2992 RMK A01 T03770175  RH  031%=      5-min Rain = 0
KDO2 121907Z 16005KT 38/17 A2992 RMK A01 T03770172  RH  030%=      5-min Rain = 0
KDO2 121908Z 17011KT 38/17 A2992 RMK A01 T03780171  RH  030%=      5-min Rain = 0
KDO2 121909Z 18014KT 38/17 A2992 RMK A01 T03780169  RH  029%=      5-min Rain = 0
KDO2 121910Z 19010KT 38/16 A2992 RMK A01 T03760164  RH  029%=      5-min Rain = 0
KDO2 121911Z 21007KT 37/16 A2992 RMK A01 T03730155  RH  028%=      5-min Rain = 0
KDO2 121912Z 18005KT 37/16 A2992 RMK A01 T03700160  RH  029%=      5-min Rain = 0
KDO2 121913Z 16005KT 37/17 A2992 RMK A01 T03710172  RH  031%=      5-min Rain = 0
KDO2 121914Z 18007KT 38/17 A2992 RMK A01 T03760171  RH  030%=      5-min Rain = 0
KDO2 121915Z 15007KT 38/16 A2992 RMK A01 T03770164  RH  029%=      5-min Rain = 0
KDO2 121916Z 18011G16KT 38/17 A2992 RMK A01 T03780174  RH  030%=      5-min Rain = 0
KDO2 121917Z 18010KT 38/17 A2992 RMK A01 T03800168  RH  029%=      5-min Rain = 0
KDO2 121918Z 20007KT 38/17 A2992 RMK A01 T03780169  RH  029%=      5-min Rain = 0
KDO2 121919Z 16010G17KT 38/18 A2992 RMK A01 T03760175  RH  031%=      5-min Rain = 0
KDO2 121920Z 15012KT 38/17 A2992 RMK A01 T03780173  RH  030%=      5-min Rain = 0
KDO2 121921Z 13009KT 38/17 A2992 RMK A01 T03770171  RH  030%=      5-min Rain = 0
KDO2 121922Z 18007KT 38/17 A2992 RMK A01 T03760170  RH  030%=      5-min Rain = 0
KDO2 121923Z 17010KT 38/17 A2992 RMK A01 T03760174  RH  031%=      5-min Rain = 0
KDO2 121924Z 16009KT 38/17 A2992 RMK A01 T03790169  RH  029%=      5-min Rain = 0
KDO2 121925Z 12004KT 38/16 A2991 RMK A01 T03780163  RH  028%=      5-min Rain = 0
KDO2 121926Z 12005KT 38/17 A2991 RMK A01 T03760169  RH  030%=      5-min Rain = 0
KDO2 121927Z 12003KT 38/16 A2991 RMK A01 T03760159  RH  028%=      5-min Rain = 0
KDO2 121928Z 14004KT 38/16 A2991 RMK A01 T03760162  RH  028%=      5-min Rain = 0
KDO2 121929Z 16008KT 38/16 A2991 RMK A01 T03760159  RH  028%=      5-min Rain = 0
KDO2 121930Z 12009KT 38/16 A2991 RMK A01 T03760158  RH  028%=      5-min Rain = 0
KDO2 121931Z 14007KT 38/16 A2991 RMK A01 T03770158  RH  028%=      5-min Rain = 0
KDO2 121932Z 13009KT 38/17 A2991 RMK A01 T03800171  RH  029%=      5-min Rain = 0
KDO2 121933Z 12007KT 38/16 A2991 RMK A01 T03810164  RH  028%=      5-min Rain = 0
KDO2 121934Z 12007KT 38/16 A2991 RMK A01 T03770160  RH  028%=      5-min Rain = 0
KDO2 121935Z 15007KT 38/17 A2991 RMK A01 T03750166  RH  029%=      5-min Rain = 0
KDO2 121936Z 15008KT 38/17 A2991 RMK A01 T03760167  RH  029%=      5-min Rain = 0
KDO2 121937Z 17008KT 38/16 A2991 RMK A01 T03780162  RH  028%=      5-min Rain = 0
KDO2 121938Z 17006KT 38/17 A2991 RMK A01 T03780165  RH  029%=      5-min Rain = 0
KDO2 121939Z 18005KT 38/17 A2991 RMK A01 T03780165  RH  029%=      5-min Rain = 0
KDO2 121940Z 16006KT 38/16 A2991 RMK A01 T03790161  RH  028%=      5-min Rain = 0
KDO2 121941Z 17006KT 38/16 A2991 RMK A01 T03780158  RH  027%=      5-min Rain = 0
KDO2 121942Z 17004KT 38/16 A2991 RMK A01 T03770156  RH  027%=      5-min Rain = 0
KDO2 121943Z 19007KT 38/18 A2991 RMK A01 T03780177  RH  031%=      5-min Rain = 0
KDO2 121944Z 18010KT 38/18 A2991 RMK A01 T03830178  RH  030%=      5-min Rain = 0
KDO2 121945Z 18013KT 39/18 A2991 RMK A01 T03850175  RH  029%=      5-min Rain = 0
KDO2 121946Z 19010KT 38/17 A2991 RMK A01 T03830172  RH  029%=      5-min Rain = 0
KDO2 121947Z 17009KT 38/17 A2991 RMK A01 T03810170  RH  029%=      5-min Rain = 0
KDO2 121948Z 17015KT 38/17 A299 RMK A01 T03810169  RH  029%=      5-min Rain = 0
KDO2 121949Z 16012KT 38/17 A2991 RMK A01 T03810168  RH  029%=      5-min Rain = 0
KDO2 121950Z 15011KT 38/17 A2991 RMK A01 T03810170  RH  029%=      5-min Rain = 0
KDO2 121951Z 17011KT 38/17 A299 RMK A01 T03800169  RH  029%=      5-min Rain = 0
KDO2 121952Z 16007KT 38/17 A299 RMK A01 T03800168  RH  029%=      5-min Rain = 0
KDO2 121953Z 14006KT 38/17 A299 RMK A01 T03800168  RH  029%=      5-min Rain = 0
KDO2 121954Z 14009KT 38/17 A299 RMK A01 T03810167  RH  028%=      5-min Rain = 0
KDO2 121955Z 13006KT 38/17 A299 RMK A01 T03810170  RH  029%=      5-min Rain = 0
KDO2 121956Z 13007KT 38/17 A299 RMK A01 T03810171  RH  029%=      5-min Rain = 0
KDO2 121957Z 14007KT 38/17 A299 RMK A01 T03810167  RH  028%=      5-min Rain = 0
KDO2 121958Z 13008KT 38/17 A299 RMK A01 T03810165  RH  028%=      5-min Rain = 0
KDO2 121959Z 14009KT 38/16 A299 RMK A01 T03810163  RH  028%=      5-min Rain = 0
KDO2 122000Z 14003KT 38/16 A299 RMK A01 T03810158  RH  027%=      5-min Rain = 0
KDO2 122001Z 17004KT 38/16 A299 RMK A01 T03810160  RH  027%=      5-min Rain = 0
KDO2 122002Z 16005KT 38/16 A299 RMK A01 T03810163  RH  028%=      5-min Rain = 0
KDO2 122003Z 13004KT 38/16 A299 RMK A01 T03810163  RH  028%=      5-min Rain = 0
KDO2 122004Z 13005KT 38/16 A299 RMK A01 T03810164  RH  028%=      5-min Rain = 0
KDO2 122005Z 18008KT 38/17 A299 RMK A01 T03820172  RH  029%=      5-min Rain = 0
KDO2 122006Z 19011KT 38/17 A299 RMK A01 T03840173  RH  029%=      5-min Rain = 0
KDO2 122007Z 18007KT 38/17 A299 RMK A01 T03840172  RH  029%=      5-min Rain = 0
KDO2 122008Z 22007KT 38/17 A299 RMK A01 T03840171  RH  029%=      5-min Rain = 0
KDO2 122009Z 20010KT 38/17 A299 RMK A01 T03840167  RH  028%=      5-min Rain = 0
KDO2 122010Z 20012KT 38/16 A2989 RMK A01 T03830162  RH  027%=      5-min Rain = 0
KDO2 122011Z 19009KT 38/16 A2989 RMK A01 T03820163  RH  028%=      5-min Rain = 0
KDO2 122012Z 20006KT 38/16 A2989 RMK A01 T03820164  RH  028%=      5-min Rain = 0
KDO2 122013Z 19004KT 38/15 A2989 RMK A01 T03820153  RH  026%=      5-min Rain = 0
KDO2 122014Z 23005G11KT 38/16 A2989 RMK A01 T03820156  RH  026%=      5-min Rain = 0
KDO2 122015Z 24006KT 38/16 A2989 RMK A01 T03820155  RH  026%=      5-min Rain = 0
KDO2 122016Z 23004KT 38/16 A2989 RMK A01 T03820163  RH  028%=      5-min Rain = 0
KDO2 122017Z 18009KT 39/16 A2989 RMK A01 T03850164  RH  027%=      5-min Rain = 0
KDO2 122018Z 18008KT 39/16 A2989 RMK A01 T03850158  RH  026%=      5-min Rain = 0
KDO2 122019Z 17004KT 38/15 A2989 RMK A01 T03840151  RH  025%=      5-min Rain = 0
KDO2 122020Z 20001KT 38/15 A2989 RMK A01 T03830151  RH  025%=      5-min Rain = 0
KDO2 122021Z 19004G10KT 38/15 A2989 RMK A01 T03830151  RH  025%=      5-min Rain = 0
KDO2 122022Z 17011KT 38/17 A2989 RMK A01 T03840167  RH  028%=      5-min Rain = 0
KDO2 122023Z 18009KT 39/17 A2989 RMK A01 T03850167  RH  028%=      5-min Rain = 0
KDO2 122024Z 19009KT 39/17 A2989 RMK A01 T03850168  RH  028%=      5-min Rain = 0
KDO2 122025Z 17007KT 38/16 A2989 RMK A01 T03830162  RH  027%=      5-min Rain = 0
KDO2 122026Z 17005KT 38/16 A2989 RMK A01 T03820162  RH  027%=      5-min Rain = 0
KDO2 122027Z 16006KT 38/17 A2989 RMK A01 T03810166  RH  028%=      5-min Rain = 0
KDO2 122028Z 20004KT 38/16 A2989 RMK A01 T03810164  RH  028%=      5-min Rain = 0
KDO2 122029Z 22002KT 38/17 A2988 RMK A01 T03820168  RH  029%=      5-min Rain = 0
KDO2 122030Z 15007KT 38/17 A2988 RMK A01 T03830173  RH  029%=      5-min Rain = 0
KDO2 122031Z 12006KT 38/17 A2988 RMK A01 T03840168  RH  028%=      5-min Rain = 0
KDO2 122032Z 07004KT 38/16 A2988 RMK A01 T03830164  RH  028%=      5-min Rain = 0
KDO2 122033Z 11005KT 38/17 A2988 RMK A01 T03810169  RH  029%=      5-min Rain = 0
KDO2 122034Z 16005KT 38/17 A2988 RMK A01 T03810165  RH  028%=      5-min Rain = 0
KDO2 122035Z 17005KT 38/16 A2988 RMK A01 T03810164  RH  028%=      5-min Rain = 0
KDO2 122036Z 13008KT 38/17 A2988 RMK A01 T03820174  RH  030%=      5-min Rain = 0
KDO2 122037Z 14007KT 39/17 A2988 RMK A01 T03850174  RH  029%=      5-min Rain = 0
KDO2 122038Z 16006KT 39/17 A2988 RMK A01 T03870169  RH  028%=      5-min Rain = 0
KDO2 122039Z 20007KT 39/17 A2988 RMK A01 T03860168  RH  028%=      5-min Rain = 0
KDO2 122040Z 20009KT 39/16 A2988 RMK A01 T03850159  RH  026%=      5-min Rain = 0
KDO2 122041Z 21007KT 39/16 A2988 RMK A01 T03850156  RH  026%=      5-min Rain = 0
KDO2 122042Z 22009KT 38/16 A2988 RMK A01 T03840161  RH  027%=      5-min Rain = 0
KDO2 122043Z 20010KT 39/16 A2988 RMK A01 T03860162  RH  027%=      5-min Rain = 0
KDO2 122044Z 19012KT 39/17 A2988 RMK A01 T03860166  RH  027%=      5-min Rain = 0
KDO2 122045Z 18009KT 39/16 A2988 RMK A01 T03870161  RH  027%=      5-min Rain = 0
KDO2 122046Z 19007KT 39/16 A2988 RMK A01 T03860159  RH  026%=      5-min Rain = 0
KDO2 122047Z 19007KT 39/16 A2988 RMK A01 T03850164  RH  027%=      5-min Rain = 0
KDO2 122048Z 20006KT 39/17 A2988 RMK A01 T03850167  RH  028%=      5-min Rain = 0
KDO2 122049Z 20005KT 39/17 A2988 RMK A01 T03870166  RH  027%=      5-min Rain = 0
KDO2 122050Z 18004KT 39/17 A2987 RMK A01 T03870166  RH  027%=      5-min Rain = 0
KDO2 122051Z 18002KT 39/17 A2987 RMK A01 T03890165  RH  027%=      5-min Rain = 0
KDO2 122052Z 13005KT 39/17 A2987 RMK A01 T03900168  RH  027%=      5-min Rain = 0
KDO2 122053Z 14005KT 39/16 A2987 RMK A01 T03900164  RH  027%=      5-min Rain = 0
KDO2 122054Z 17007KT 39/17 A2987 RMK A01 T03880171  RH  028%=      5-min Rain = 0
KDO2 122055Z 17004KT 39/16 A2987 RMK A01 T03890164  RH  027%=      5-min Rain = 0
KDO2 122056Z 08002KT 39/16 A2987 RMK A01 T03900159  RH  026%=      5-min Rain = 0
KDO2 122057Z 03002KT 39/17 A2987 RMK A01 T03900171  RH  028%=      5-min Rain = 0
KDO2 122058Z 30006KT 39/17 A2987 RMK A01 T03890165  RH  027%=      5-min Rain = 0
KDO2 122059Z 21006KT 39/16 A2987 RMK A01 T03860161  RH  027%=      5-min Rain = 0
KDO2 122100Z 20008KT 39/17 A2987 RMK A01 T03870165  RH  027%=      5-min Rain = 0
KDO2 122101Z 23008KT 39/16 A2987 RMK A01 T03890162  RH  026%=      5-min Rain = 0
KDO2 122102Z 19008KT 39/17 A2987 RMK A01 T03890167  RH  027%=      5-min Rain = 0
KDO2 122103Z 16009KT 39/16 A2987 RMK A01 T03900162  RH  026%=      5-min Rain = 0
KDO2 122104Z 15011KT 39/16 A2987 RMK A01 T03880161  RH  026%=      5-min Rain = 0
KDO2 122105Z 15009KT 39/16 A2987 RMK A01 T03870162  RH  027%=      5-min Rain = 0
KDO2 122106Z 16008KT 39/16 A2987 RMK A01 T03870162  RH  027%=      5-min Rain = 0
KDO2 122107Z 17007KT 39/16 A2987 RMK A01 T03880161  RH  026%=      5-min Rain = 0
KDO2 122108Z 16004KT 39/15 A2987 RMK A01 T03860154  RH  025%=      5-min Rain = 0
KDO2 122109Z 17005KT 39/16 A2987 RMK A01 T03860159  RH  026%=      5-min Rain = 0
KDO2 122110Z 15004G9KT 39/16 A2986 RMK A01 T03860159  RH  026%=      5-min Rain = 0
KDO2 122111Z 14006KT 39/16 A2986 RMK A01 T03860156  RH  026%=      5-min Rain = 0
KDO2 122112Z 18010G17KT 39/17 A2986 RMK A01 T03860169  RH  028%=      5-min Rain = 0
KDO2 122113Z 19012KT 39/17 A2986 RMK A01 T03880165  RH  027%=      5-min Rain = 0
KDO2 122114Z 19011KT 39/17 A2986 RMK A01 T03890168  RH  028%=      5-min Rain = 0
KDO2 122115Z 21011KT 39/16 A2986 RMK A01 T03880164  RH  027%=      5-min Rain = 0
KDO2 122116Z 21009KT 39/16 A2986 RMK A01 T03870161  RH  027%=      5-min Rain = 0
KDO2 122117Z 20004KT 39/16 A2986 RMK A01 T03870158  RH  026%=      5-min Rain = 0
KDO2 122118Z 16004KT 39/16 A2986 RMK A01 T03860161  RH  027%=      5-min Rain = 0
KDO2 122119Z 14006KT 39/16 A2986 RMK A01 T03870163  RH  027%=      5-min Rain = 0
KDO2 122120Z 13011KT 39/16 A2986 RMK A01 T03880163  RH  027%=      5-min Rain = 0
KDO2 122121Z 15012KT 39/16 A2986 RMK A01 T03890163  RH  027%=      5-min Rain = 0
KDO2 122122Z 15010KT 39/16 A2986 RMK A01 T03900162  RH  026%=      5-min Rain = 0
KDO2 122123Z 15010KT 39/17 A2986 RMK A01 T03900165  RH  027%=      5-min Rain = 0
KDO2 122124Z 11010KT 39/16 A2986 RMK A01 T03900164  RH  027%=      5-min Rain = 0
KDO2 122125Z 11009KT 39/16 A2986 RMK A01 T03910160  RH  026%=      5-min Rain = 0
KDO2 122126Z 15010KT 39/17 A2986 RMK A01 T03900166  RH  027%=      5-min Rain = 0
KDO2 122127Z 14011KT 39/17 A2986 RMK A01 T03900165  RH  027%=      5-min Rain = 0
KDO2 122128Z 13011KT 39/16 A2986 RMK A01 T03890161  RH  026%=      5-min Rain = 0
KDO2 122129Z 14010KT 39/17 A2986 RMK A01 T03880166  RH  027%=      5-min Rain = 0
KDO2 122130Z 13011KT 39/17 A2986 RMK A01 T03890170  RH  028%=      5-min Rain = 0
KDO2 122131Z 12012KT 39/17 A2986 RMK A01 T03910166  RH  027%=      5-min Rain = 0
KDO2 122132Z 13010KT 39/16 A2986 RMK A01 T03900164  RH  027%=      5-min Rain = 0
KDO2 122133Z 14008KT 39/16 A2986 RMK A01 T03890164  RH  027%=      5-min Rain = 0
KDO2 122134Z 15009KT 39/16 A2986 RMK A01 T03880163  RH  027%=      5-min Rain = 0
KDO2 122135Z 14007KT 39/16 A2986 RMK A01 T03880162  RH  027%=      5-min Rain = 0
KDO2 122136Z 11012KT 39/16 A2986 RMK A01 T03880160  RH  026%=      5-min Rain = 0
KDO2 122137Z 09007KT 39/16 A2986 RMK A01 T03870158  RH  026%=      5-min Rain = 0
KDO2 122138Z 10008KT 39/16 A2986 RMK A01 T03870163  RH  027%=      5-min Rain = 0
KDO2 122139Z 12010KT 39/16 A2986 RMK A01 T03870162  RH  027%=      5-min Rain = 0
KDO2 122140Z 15010KT 39/16 A2986 RMK A01 T03880161  RH  026%=      5-min Rain = 0
KDO2 122141Z 16012KT 39/16 A2986 RMK A01 T03880161  RH  026%=      5-min Rain = 0
KDO2 122142Z 15009KT 39/16 A2986 RMK A01 T03870158  RH  026%=      5-min Rain = 0
KDO2 122143Z 14007KT 39/16 A2986 RMK A01 T03870163  RH  027%=      5-min Rain = 0
KDO2 122144Z 16009KT 39/17 A2985 RMK A01 T03870165  RH  027%=      5-min Rain = 0
KDO2 122145Z 17007KT 39/17 A2985 RMK A01 T03890165  RH  027%=      5-min Rain = 0
KDO2 122146Z 17009KT 39/17 A2985 RMK A01 T03890167  RH  027%=      5-min Rain = 0
KDO2 122147Z 17006KT 39/16 A2985 RMK A01 T03900158  RH  026%=      5-min Rain = 0
KDO2 122148Z 17004KT 39/16 A2985 RMK A01 T03880156  RH  026%=      5-min Rain = 0
KDO2 122149Z 18005KT 39/15 A2985 RMK A01 T03880154  RH  025%=      5-min Rain = 0
KDO2 122150Z 17008KT 39/16 A2985 RMK A01 T03870159  RH  026%=      5-min Rain = 0
KDO2 122151Z 16005KT 39/15 A2985 RMK A01 T03880154  RH  025%=      5-min Rain = 0
KDO2 122152Z 20006KT 39/16 A2985 RMK A01 T03890158  RH  026%=      5-min Rain = 0
KDO2 122153Z 19008KT 39/16 A2985 RMK A01 T03890159  RH  026%=      5-min Rain = 0
KDO2 122154Z 21004KT 39/15 A2985 RMK A01 T03890151  RH  025%=      5-min Rain = 0
KDO2 122155Z 16004KT 39/15 A2985 RMK A01 T03880153  RH  025%=      5-min Rain = 0
KDO2 122156Z 11002KT 39/15 A2985 RMK A01 T03880148  RH  024%=      5-min Rain = 0
KDO2 122157Z 16003KT 39/15 A2985 RMK A01 T03880149  RH  025%=      5-min Rain = 0
KDO2 122158Z 16006KT 39/16 A2985 RMK A01 T03880158  RH  026%=      5-min Rain = 0
KDO2 122159Z 15007KT 39/16 A2985 RMK A01 T03890164  RH  027%=      5-min Rain = 0
KDO2 122200Z 15008G14KT 39/16 A2985 RMK A01 T03900155  RH  025%=      5-min Rain = 0
KDO2 122201Z 15011KT 39/16 A2985 RMK A01 T03890163  RH  027%=      5-min Rain = 0
KDO2 122202Z 13010KT 39/17 A2985 RMK A01 T03900166  RH  027%=      5-min Rain = 0
KDO2 122203Z 12007KT 39/16 A2985 RMK A01 T03900161  RH  026%=      5-min Rain = 0
KDO2 122204Z 13007KT 39/17 A2985 RMK A01 T03900165  RH  027%=      5-min Rain = 0
KDO2 122205Z 13007KT 39/16 A2985 RMK A01 T03900162  RH  026%=      5-min Rain = 0
KDO2 122206Z 14007KT 39/16 A2985 RMK A01 T03890162  RH  026%=      5-min Rain = 0
KDO2 122207Z 14009KT 39/16 A2985 RMK A01 T03880161  RH  026%=      5-min Rain = 0
KDO2 122208Z 14007KT 39/17 A2985 RMK A01 T03890167  RH  027%=      5-min Rain = 0
KDO2 122209Z 14008KT 39/17 A2985 RMK A01 T03890169  RH  028%=      5-min Rain = 0
KDO2 122210Z 13007KT 39/17 A2985 RMK A01 T03900167  RH  027%=      5-min Rain = 0
KDO2 122211Z 13013KT 39/17 A2985 RMK A01 T03900165  RH  027%=      5-min Rain = 0
KDO2 122212Z 15008KT 39/16 A2985 RMK A01 T03890159  RH  026%=      5-min Rain = 0
KDO2 122213Z 15004KT 39/17 A2985 RMK A01 T03880165  RH  027%=      5-min Rain = 0
KDO2 122214Z 13004KT 39/16 A2985 RMK A01 T03880156  RH  026%=      5-min Rain = 0
KDO2 122215Z 10006KT 39/16 A2985 RMK A01 T03880160  RH  026%=      5-min Rain = 0
KDO2 122216Z 12004KT 39/16 A2985 RMK A01 T03890157  RH  026%=      5-min Rain = 0
KDO2 122217Z 13005KT 39/16 A2985 RMK A01 T03890162  RH  026%=      5-min Rain = 0
KDO2 122218Z 14006KT 39/17 A2985 RMK A01 T03890165  RH  027%=      5-min Rain = 0
KDO2 122219Z 13004KT 39/16 A2985 RMK A01 T03900162  RH  026%=      5-min Rain = 0
KDO2 122220Z 14006KT 39/16 A2985 RMK A01 T03900163  RH  026%=      5-min Rain = 0
KDO2 122221Z 11010G15KT 39/16 A2984 RMK A01 T03910164  RH  027%=      5-min Rain = 0
KDO2 122222Z 12009KT 39/16 A2984 RMK A01 T03910157  RH  025%=      5-min Rain = 0
KDO2 122223Z 14007KT 39/16 A2984 RMK A01 T03890156  RH  025%=      5-min Rain = 0
KDO2 122224Z 13005KT 39/15 A2984 RMK A01 T03880153  RH  025%=      5-min Rain = 0
KDO2 122225Z 13008KT 39/16 A2984 RMK A01 T03870157  RH  026%=      5-min Rain = 0
KDO2 122226Z 11009KT 39/16 A2984 RMK A01 T03880158  RH  026%=      5-min Rain = 0
KDO2 122227Z 11012KT 39/16 A2984 RMK A01 T03900159  RH  026%=      5-min Rain = 0
KDO2 122228Z 12012KT 39/16 A2984 RMK A01 T03910159  RH  026%=      5-min Rain = 0
KDO2 122229Z 12008KT 39/16 A2984 RMK A01 T03910160  RH  026%=      5-min Rain = 0
KDO2 122230Z 16008KT 39/16 A2984 RMK A01 T03910164  RH  026%=      5-min Rain = 0
KDO2 122231Z 18007KT 39/16 A2984 RMK A01 T03910162  RH  026%=      5-min Rain = 0
KDO2 122232Z 18005KT 39/16 A2984 RMK A01 T03910156  RH  025%=      5-min Rain = 0
KDO2 122233Z 20005KT 39/16 A2984 RMK A01 T03890160  RH  026%=      5-min Rain = 0
KDO2 122234Z 18006KT 39/16 A2984 RMK A01 T03900161  RH  026%=      5-min Rain = 0
KDO2 122235Z 14004KT 39/16 A2984 RMK A01 T03900161  RH  026%=      5-min Rain = 0
KDO2 122236Z 19004KT 39/16 A2984 RMK A01 T03910161  RH  026%=      5-min Rain = 0
KDO2 122237Z 17008KT 39/16 A2984 RMK A01 T03910161  RH  026%=      5-min Rain = 0
KDO2 122238Z 19010KT 39/17 A2984 RMK A01 T03910167  RH  027%=      5-min Rain = 0
KDO2 122239Z 19010KT 39/16 A2984 RMK A01 T03900161  RH  026%=      5-min Rain = 0
KDO2 122240Z 19006KT 39/15 A2984 RMK A01 T03890154  RH  025%=      5-min Rain = 0
KDO2 122241Z 15007KT 39/16 A2984 RMK A01 T03880156  RH  026%=      5-min Rain = 0
KDO2 122242Z 13012KT 39/16 A2984 RMK A01 T03870159  RH  026%=      5-min Rain = 0
KDO2 122243Z 13012KT 39/16 A2984 RMK A01 T03880159  RH  026%=      5-min Rain = 0
KDO2 122244Z 13010KT 39/16 A2984 RMK A01 T03880157  RH  026%=      5-min Rain = 0
KDO2 122245Z 13009KT 39/16 A2984 RMK A01 T03880157  RH  026%=      5-min Rain = 0
KDO2 122246Z 12008KT 39/16 A2984 RMK A01 T03870157  RH  026%=      5-min Rain = 0
KDO2 122247Z 11009KT 39/16 A2984 RMK A01 T03870159  RH  026%=      5-min Rain = 0
KDO2 122248Z 11009KT 39/16 A2983 RMK A01 T03880156  RH  026%=      5-min Rain = 0
KDO2 122249Z 11007KT 39/15 A2983 RMK A01 T03890153  RH  025%=      5-min Rain = 0
KDO2 122250Z 13008KT 39/15 A2983 RMK A01 T03880152  RH  025%=      5-min Rain = 0
KDO2 122251Z 13007KT 39/16 A2983 RMK A01 T03880158  RH  026%=      5-min Rain = 0
KDO2 122252Z 11006KT 39/15 A2983 RMK A01 T03880154  RH  025%=      5-min Rain = 0
KDO2 122253Z 12006KT 39/15 A2983 RMK A01 T03880150  RH  025%=      5-min Rain = 0
KDO2 122254Z 15007KT 39/16 A2983 RMK A01 T03880158  RH  026%=      5-min Rain = 0
KDO2 122255Z 14013KT 39/16 A2983 RMK A01 T03880155  RH  025%=      5-min Rain = 0
KDO2 122256Z 13014KT 39/15 A2983 RMK A01 T03880154  RH  025%=      5-min Rain = 0
KDO2 122257Z 14013KT 39/16 A2983 RMK A01 T03880156  RH  026%=      5-min Rain = 0
KDO2 122258Z 14011KT 39/15 A2983 RMK A01 T03870154  RH  025%=      5-min Rain = 0
KDO2 122259Z 13010KT 39/16 A2983 RMK A01 T03870155  RH  026%=      5-min Rain = 0
KDO2 122300Z 14008KT 39/15 A2983 RMK A01 T03860153  RH  025%=      5-min Rain = 0
KDO2 122301Z 12007KT 39/15 A2983 RMK A01 T03860152  RH  025%=      5-min Rain = 0
KDO2 122302Z 13010KT 39/15 A2983 RMK A01 T03860154  RH  025%=      5-min Rain = 0
KDO2 122303Z 13009KT 39/15 A2983 RMK A01 T03870154  RH  025%=      5-min Rain = 0
KDO2 122304Z 12010KT 39/15 A2983 RMK A01 T03870153  RH  025%=      5-min Rain = 0
KDO2 122305Z 13008KT 39/15 A2983 RMK A01 T03870153  RH  025%=      5-min Rain = 0
KDO2 122306Z 14007KT 39/15 A2983 RMK A01 T03870152  RH  025%=      5-min Rain = 0
KDO2 122307Z 13007KT 39/16 A2983 RMK A01 T03870157  RH  026%=      5-min Rain = 0
KDO2 122308Z 12007KT 39/16 A2983 RMK A01 T03870160  RH  026%=      5-min Rain = 0
KDO2 122309Z 13008KT 39/15 A2983 RMK A01 T03880153  RH  025%=      5-min Rain = 0
KDO2 122310Z 12008KT 39/15 A2983 RMK A01 T03880152  RH  025%=      5-min Rain = 0
KDO2 122311Z 12010KT 39/15 A2983 RMK A01 T03880152  RH  025%=      5-min Rain = 0
KDO2 122312Z 12010KT 39/15 A2983 RMK A01 T03880149  RH  024%=      5-min Rain = 0
KDO2 122313Z 14010KT 39/15 A2983 RMK A01 T03870152  RH  025%=      5-min Rain = 0
KDO2 122314Z 14010KT 39/15 A2983 RMK A01 T03870151  RH  025%=      5-min Rain = 0
KDO2 122315Z 15009KT 39/15 A2983 RMK A01 T03870149  RH  025%=      5-min Rain = 0
KDO2 122316Z 16008KT 39/15 A2983 RMK A01 T03860149  RH  025%=      5-min Rain = 0
KDO2 122317Z 17008G15KT 39/15 A2983 RMK A01 T03860153  RH  025%=      5-min Rain = 0
KDO2 122318Z 17012KT 39/15 A2983 RMK A01 T03860149  RH  025%=      5-min Rain = 0
KDO2 122319Z 17009KT 39/15 A2983 RMK A01 T03860154  RH  026%=      5-min Rain = 0
KDO2 122320Z 17010KT 39/16 A2983 RMK A01 T03860155  RH  026%=      5-min Rain = 0
KDO2 122321Z 16008KT 39/15 A2983 RMK A01 T03860154  RH  026%=      5-min Rain = 0
KDO2 122322Z 17011KT 39/16 A2983 RMK A01 T03860155  RH  026%=      5-min Rain = 0
KDO2 122323Z 16009KT 39/15 A2983 RMK A01 T03860151  RH  025%=      5-min Rain = 0
KDO2 122324Z 15010KT 39/15 A2983 RMK A01 T03860153  RH  025%=      5-min Rain = 0
KDO2 122325Z 17008KT 39/16 A2983 RMK A01 T03860157  RH  026%=      5-min Rain = 0
KDO2 122326Z 19008KT 39/16 A2983 RMK A01 T03850158  RH  026%=      5-min Rain = 0
KDO2 122327Z 17005KT 38/16 A2983 RMK A01 T03840158  RH  026%=      5-min Rain = 0
KDO2 122328Z 19005KT 38/16 A2983 RMK A01 T03840163  RH  027%=      5-min Rain = 0
KDO2 122329Z 17005KT 38/17 A2983 RMK A01 T03840166  RH  028%=      5-min Rain = 0
KDO2 122330Z 18006KT 38/16 A2983 RMK A01 T03840162  RH  027%=      5-min Rain = 0
KDO2 122331Z 17004KT 38/16 A2983 RMK A01 T03840163  RH  027%=      5-min Rain = 0
KDO2 122332Z 14006KT 38/16 A2983 RMK A01 T03840159  RH  027%=      5-min Rain = 0
KDO2 122333Z 14007KT 38/16 A2983 RMK A01 T03840161  RH  027%=      5-min Rain = 0
KDO2 122334Z 14007KT 38/16 A2983 RMK A01 T03840164  RH  027%=      5-min Rain = 0
KDO2 122335Z 16007KT 38/17 A2983 RMK A01 T03840166  RH  028%=      5-min Rain = 0
KDO2 122336Z 16006KT 38/16 A2983 RMK A01 T03830161  RH  027%=      5-min Rain = 0
KDO2 122337Z 15006KT 38/16 A2983 RMK A01 T03830161  RH  027%=      5-min Rain = 0
KDO2 122338Z 14006KT 38/16 A2983 RMK A01 T03820160  RH  027%=      5-min Rain = 0
KDO2 122339Z 14007KT 38/16 A2983 RMK A01 T03830156  RH  026%=      5-min Rain = 0
KDO2 122340Z 15008KT 38/16 A2983 RMK A01 T03820160  RH  027%=      5-min Rain = 0
KDO2 122341Z 15014KT 38/15 A2983 RMK A01 T03810153  RH  026%=      5-min Rain = 0
KDO2 122342Z 16013KT 38/15 A2983 RMK A01 T03820150  RH  025%=      5-min Rain = 0
KDO2 122343Z 16011KT 38/16 A2983 RMK A01 T03820155  RH  026%=      5-min Rain = 0
KDO2 122344Z 16010KT 38/15 A2983 RMK A01 T03820154  RH  026%=      5-min Rain = 0
KDO2 122345Z 18010KT 38/16 A2982 RMK A01 T03810157  RH  027%=      5-min Rain = 0
KDO2 122346Z 17009KT 38/16 A2982 RMK A01 T03800155  RH  027%=      5-min Rain = 0
KDO2 122347Z 15009KT 38/16 A2982 RMK A01 T03800155  RH  026%=      5-min Rain = 0
KDO2 122348Z 14011KT 38/15 A2982 RMK A01 T03810152  RH  026%=      5-min Rain = 0
KDO2 122349Z 13009KT 38/16 A2982 RMK A01 T03810156  RH  027%=      5-min Rain = 0
KDO2 122350Z 14010KT 38/16 A2982 RMK A01 T03800156  RH  027%=      5-min Rain = 0
KDO2 122351Z 14010KT 38/15 A2982 RMK A01 T03800153  RH  026%=      5-min Rain = 0
KDO2 122352Z 14010KT 38/15 A2982 RMK A01 T03790152  RH  026%=      5-min Rain = 0
KDO2 122353Z 13009KT 38/16 A2982 RMK A01 T03800155  RH  027%=      5-min Rain = 0
KDO2 122354Z 13009KT 38/15 A2982 RMK A01 T03800154  RH  026%=      5-min Rain = 0
KDO2 122355Z 14007KT 38/15 A2982 RMK A01 T03790152  RH  026%=      5-min Rain = 0
KDO2 122356Z 14006KT 38/16 A2982 RMK A01 T03790159  RH  027%=      5-min Rain = 0
KDO2 122357Z 13007KT 38/16 A2982 RMK A01 T03790161  RH  028%=      5-min Rain = 0
KDO2 122358Z 14006KT 38/16 A2982 RMK A01 T03790162  RH  028%=      5-min Rain = 0
KDO2 122359Z 13007KT 38/17 A2982 RMK A01 T03780167  RH  029%=      5-min Rain = 0
KDO2 130000Z 13010KT 38/16 A2982 RMK A01 T03770158  RH  027%=      5-min Rain = 0
KDO2 130001Z 15010KT 38/16 A2982 RMK A01 T03770157  RH  027%=      5-min Rain = 0
KDO2 130002Z 15009KT 38/16 A2982 RMK A01 T03770157  RH  027%=      5-min Rain = 0
KDO2 130003Z 15008KT 38/16 A2982 RMK A01 T03770160  RH  028%=      5-min Rain = 0
KDO2 130004Z 14008KT 38/16 A2982 RMK A01 T03770161  RH  028%=      5-min Rain = 0
KDO2 130005Z 17009KT 38/16 A2982 RMK A01 T03760158  RH  028%=      5-min Rain = 0
KDO2 130006Z 17009KT 38/16 A2982 RMK A01 T03760157  RH  028%=      5-min Rain = 0
KDO2 130007Z 16009KT 38/16 A2982 RMK A01 T03760155  RH  027%=      5-min Rain = 0
KDO2 130008Z 17008KT 38/15 A2982 RMK A01 T03760153  RH  027%=      5-min Rain = 0
KDO2 130009Z 16006KT 38/16 A2982 RMK A01 T03760157  RH  028%=      5-min Rain = 0
KDO2 130010Z 17007KT 38/16 A2982 RMK A01 T03750162  RH  028%=      5-min Rain = 0
KDO2 130011Z 17008KT 37/16 A2982 RMK A01 T03740158  RH  028%=      5-min Rain = 0
KDO2 130012Z 18009KT 37/15 A2982 RMK A01 T03740153  RH  027%=      5-min Rain = 0
KDO2 130013Z 16007KT 37/15 A2982 RMK A01 T03740153  RH  027%=      5-min Rain = 0
KDO2 130014Z 16008KT 37/16 A2982 RMK A01 T03740160  RH  028%=      5-min Rain = 0
KDO2 130015Z 16008KT 37/16 A2982 RMK A01 T03730156  RH  028%=      5-min Rain = 0
KDO2 130016Z 16008KT 37/15 A2982 RMK A01 T03730154  RH  027%=      5-min Rain = 0
KDO2 130017Z 15009KT 37/16 A2982 RMK A01 T03730155  RH  028%=      5-min Rain = 0
KDO2 130018Z 15010KT 37/15 A2982 RMK A01 T03730154  RH  027%=      5-min Rain = 0
KDO2 130019Z 14011KT 37/15 A2982 RMK A01 T03730150  RH  027%=      5-min Rain = 0
KDO2 130020Z 15011KT 37/15 A2982 RMK A01 T03730150  RH  027%=      5-min Rain = 0
KDO2 130021Z 15010KT 37/15 A2982 RMK A01 T03740150  RH  027%=      5-min Rain = 0
KDO2 130022Z 14011KT 37/15 A2982 RMK A01 T03740152  RH  027%=      5-min Rain = 0
KDO2 130023Z 14010KT 37/15 A2982 RMK A01 T03740153  RH  027%=      5-min Rain = 0
KDO2 130024Z 14009KT 37/15 A2982 RMK A01 T03730152  RH  027%=      5-min Rain = 0
KDO2 130025Z 14009KT 37/16 A2982 RMK A01 T03730155  RH  028%=      5-min Rain = 0
KDO2 130026Z 14010KT 37/15 A2982 RMK A01 T03720151  RH  027%=      5-min Rain = 0
KDO2 130027Z 14010KT 37/15 A2982 RMK A01 T03720149  RH  027%=      5-min Rain = 0
KDO2 130028Z 14012KT 37/15 A2982 RMK A01 T03730147  RH  026%=      5-min Rain = 0
KDO2 130029Z 15011KT 37/15 A2982 RMK A01 T03730148  RH  026%=      5-min Rain = 0
KDO2 130030Z 14011KT 37/15 A2982 RMK A01 T03730149  RH  026%=      5-min Rain = 0
KDO2 130031Z 14009KT 37/15 A2982 RMK A01 T03730151  RH  027%=      5-min Rain = 0
KDO2 130032Z 14009KT 37/15 A2982 RMK A01 T03720151  RH  027%=      5-min Rain = 0
KDO2 130033Z 14010KT 37/15 A2982 RMK A01 T03720151  RH  027%=      5-min Rain = 0
KDO2 130034Z 14010KT 37/15 A2982 RMK A01 T03720149  RH  027%=      5-min Rain = 0
KDO2 130035Z 15009KT 37/15 A2982 RMK A01 T03720151  RH  027%=      5-min Rain = 0
KDO2 130036Z 14010KT 37/15 A2982 RMK A01 T03720151  RH  027%=      5-min Rain = 0
KDO2 130037Z 14010KT 37/15 A2982 RMK A01 T03710151  RH  027%=      5-min Rain = 0
KDO2 130038Z 14013KT 37/15 A2982 RMK A01 T03710149  RH  027%=      5-min Rain = 0
KDO2 130039Z 14009KT 37/15 A2982 RMK A01 T03720150  RH  027%=      5-min Rain = 0
KDO2 130040Z 15008KT 37/15 A2982 RMK A01 T03710153  RH  028%=      5-min Rain = 0
KDO2 130041Z 16010KT 37/15 A2982 RMK A01 T03700153  RH  028%=      5-min Rain = 0
KDO2 130042Z 16010KT 37/15 A2982 RMK A01 T03690150  RH  027%=      5-min Rain = 0
KDO2 130043Z 16010KT 37/15 A2982 RMK A01 T03680149  RH  027%=      5-min Rain = 0
KDO2 130044Z 16010KT 37/15 A2982 RMK A01 T03680148  RH  027%=      5-min Rain = 0
KDO2 130045Z 15009KT 37/15 A2982 RMK A01 T03680147  RH  027%=      5-min Rain = 0
KDO2 130046Z 15008KT 37/15 A2982 RMK A01 T03680149  RH  027%=      5-min Rain = 0
KDO2 130047Z 14008KT 37/15 A2982 RMK A01 T03670150  RH  028%=      5-min Rain = 0
KDO2 130048Z 14008KT 37/15 A2982 RMK A01 T03660151  RH  028%=      5-min Rain = 0
KDO2 130049Z 14007KT 36/15 A2982 RMK A01 T03640151  RH  028%=      5-min Rain = 0
KDO2 130050Z 14007KT 36/15 A2982 RMK A01 T03640153  RH  029%=      5-min Rain = 0
KDO2 130051Z 14007KT 36/15 A2982 RMK A01 T03620154  RH  029%=      5-min Rain = 0
KDO2 130052Z 14008KT 36/15 A2982 RMK A01 T03610154  RH  029%=      5-min Rain = 0
KDO2 130053Z 14008KT 36/15 A2982 RMK A01 T03600151  RH  029%=      5-min Rain = 0
KDO2 130054Z 14006KT 36/15 A2982 RMK A01 T03600153  RH  029%=      5-min Rain = 0
KDO2 130055Z 14008KT 36/15 A2982 RMK A01 T03600153  RH  029%=      5-min Rain = 0
KDO2 130056Z 14009KT 36/15 A2982 RMK A01 T03600151  RH  029%=      5-min Rain = 0
KDO2 130057Z 14007KT 36/15 A2982 RMK A01 T03600152  RH  029%=      5-min Rain = 0
KDO2 130058Z 14007KT 36/15 A2982 RMK A01 T03600154  RH  029%=      5-min Rain = 0
KDO2 130059Z 13007KT 36/15 A2982 RMK A01 T03590153  RH  029%=      5-min Rain = 0
KDO2 130100Z 13007KT 36/16 A2982 RMK A01 T03580155  RH  030%=      5-min Rain = 0
KDO2 130101Z 13006KT 36/16 A2983 RMK A01 T03560156  RH  030%=      5-min Rain = 0
KDO2 130102Z 12007KT 36/16 A2983 RMK A01 T03550157  RH  031%=      5-min Rain = 0
KDO2 130103Z 13006KT 35/16 A2983 RMK A01 T03530157  RH  031%=      5-min Rain = 0
KDO2 130104Z 13007KT 35/16 A2983 RMK A01 T03520156  RH  031%=      5-min Rain = 0
KDO2 130105Z 13008KT 35/15 A2983 RMK A01 T03520154  RH  031%=      5-min Rain = 0
KDO2 130106Z 13007KT 35/15 A2983 RMK A01 T03520153  RH  031%=      5-min Rain = 0
KDO2 130107Z 12007KT 35/15 A2983 RMK A01 T03520154  RH  031%=      5-min Rain = 0
KDO2 130108Z 13007KT 35/16 A2983 RMK A01 T03520155  RH  031%=      5-min Rain = 0
KDO2 130109Z 13008KT 35/15 A2983 RMK A01 T03520153  RH  031%=      5-min Rain = 0
KDO2 130110Z 13007KT 35/15 A2983 RMK A01 T03520152  RH  030%=      5-min Rain = 0
KDO2 130111Z 13007KT 35/15 A2983 RMK A01 T03520151  RH  030%=      5-min Rain = 0
KDO2 130112Z 13007KT 35/15 A2983 RMK A01 T03530152  RH  030%=      5-min Rain = 0
KDO2 130113Z 13007KT 35/15 A2983 RMK A01 T03520153  RH  030%=      5-min Rain = 0
KDO2 130114Z 13007KT 35/15 A2983 RMK A01 T03510153  RH  031%=      5-min Rain = 0
KDO2 130115Z 14007KT 35/15 A2983 RMK A01 T03500153  RH  031%=      5-min Rain = 0
KDO2 130116Z 14007KT 35/15 A2983 RMK A01 T03490153  RH  031%=      5-min Rain = 0
KDO2 130117Z 13007KT 35/15 A2983 RMK A01 T03490153  RH  031%=      5-min Rain = 0
KDO2 130118Z 14006KT 35/15 A2983 RMK A01 T03480153  RH  031%=      5-min Rain = 0
KDO2 130119Z 13006KT 35/15 A2983 RMK A01 T03470154  RH  032%=      5-min Rain = 0
KDO2 130120Z 13007KT 35/15 A2983 RMK A01 T03450154  RH  032%=      5-min Rain = 0
KDO2 130121Z 13007KT 34/15 A2983 RMK A01 T03440154  RH  032%=      5-min Rain = 0
KDO2 130122Z 13006KT 34/15 A2983 RMK A01 T03420154  RH  032%=      5-min Rain = 0
KDO2 130123Z 13006KT 34/15 A2983 RMK A01 T03410153  RH  033%=      5-min Rain = 0
KDO2 130124Z 13007KT 34/15 A2983 RMK A01 T03400153  RH  032%=      5-min Rain = 0
KDO2 130125Z 13007KT 34/15 A2983 RMK A01 T03400152  RH  032%=      5-min Rain = 0
KDO2 130126Z 13007KT 34/15 A2983 RMK A01 T03400151  RH  032%=      5-min Rain = 0
KDO2 130127Z 13008KT 34/15 A2983 RMK A01 T03400150  RH  032%=      5-min Rain = 0
KDO2 130128Z 13007KT 34/15 A2983 RMK A01 T03400149  RH  032%=      5-min Rain = 0
KDO2 130129Z 13007KT 34/15 A2983 RMK A01 T03410149  RH  032%=      5-min Rain = 0
KDO2 130130Z 13008KT 34/15 A2983 RMK A01 T03410148  RH  032%=      5-min Rain = 0
KDO2 130131Z 13008KT 34/15 A2983 RMK A01 T03420148  RH  031%=      5-min Rain = 0
KDO2 130132Z 13008KT 34/15 A2983 RMK A01 T03420147  RH  031%=      5-min Rain = 0
KDO2 130133Z 13008KT 34/15 A2983 RMK A01 T03420147  RH  031%=      5-min Rain = 0
KDO2 130134Z 13008KT 34/15 A2983 RMK A01 T03430147  RH  031%=      5-min Rain = 0
KDO2 130135Z 14008KT 34/15 A2983 RMK A01 T03420146  RH  031%=      5-min Rain = 0
KDO2 130136Z 14008KT 34/15 A2984 RMK A01 T03430147  RH  031%=      5-min Rain = 0
KDO2 130137Z 14008KT 34/15 A2984 RMK A01 T03430146  RH  031%=      5-min Rain = 0
KDO2 130138Z 13008KT 34/15 A2984 RMK A01 T03420147  RH  031%=      5-min Rain = 0
KDO2 130139Z 13008KT 34/15 A2984 RMK A01 T03420146  RH  031%=      5-min Rain = 0
KDO2 130140Z 13008KT 34/15 A2984 RMK A01 T03410146  RH  031%=      5-min Rain = 0
KDO2 130141Z 13007KT 34/15 A2984 RMK A01 T03400146  RH  031%=      5-min Rain = 0
KDO2 130142Z 13007KT 34/15 A2984 RMK A01 T03390146  RH  031%=      5-min Rain = 0
KDO2 130143Z 13008KT 34/15 A2984 RMK A01 T03390146  RH  031%=      5-min Rain = 0
KDO2 130144Z 14007KT 34/15 A2984 RMK A01 T03390145  RH  031%=      5-min Rain = 0
KDO2 130145Z 13007KT 34/15 A2984 RMK A01 T03380145  RH  031%=      5-min Rain = 0
KDO2 130146Z 13007KT 34/15 A2984 RMK A01 T03370145  RH  032%=      5-min Rain = 0
KDO2 130147Z 14007KT 34/15 A2984 RMK A01 T03360145  RH  032%=      5-min Rain = 0
KDO2 130148Z 13008KT 34/15 A2984 RMK A01 T03360145  RH  032%=      5-min Rain = 0
KDO2 130149Z 13008KT 34/15 A2984 RMK A01 T03360145  RH  032%=      5-min Rain = 0
KDO2 130150Z 14008KT 34/14 A2984 RMK A01 T03350144  RH  032%=      5-min Rain = 0
KDO2 130151Z 13007KT 34/14 A2984 RMK A01 T03350144  RH  032%=      5-min Rain = 0
KDO2 130152Z 14007KT 33/15 A2984 RMK A01 T03340145  RH  032%=      5-min Rain = 0
KDO2 130153Z 14007KT 33/15 A2984 RMK A01 T03330145  RH  032%=      5-min Rain = 0
KDO2 130154Z 14008KT 33/15 A2984 RMK A01 T03330145  RH  032%=      5-min Rain = 0
KDO2 130155Z 14007KT 33/14 A2984 RMK A01 T03320144  RH  032%=      5-min Rain = 0
KDO2 130156Z 14008KT 33/15 A2984 RMK A01 T03320145  RH  032%=      5-min Rain = 0
KDO2 130157Z 14008KT 33/14 A2984 RMK A01 T03310144  RH  032%=      5-min Rain = 0
KDO2 130158Z 14007KT 33/14 A2984 RMK A01 T03310144  RH  032%=      5-min Rain = 0
KDO2 130159Z 14007KT 33/15 A2984 RMK A01 T03310145  RH  033%=      5-min Rain = 0
KDO2 130200Z 14007KT 33/14 A2984 RMK A01 T03300144  RH  033%=      5-min Rain = 0
KDO2 130201Z 14007KT 33/14 A2984 RMK A01 T03290144  RH  033%=      5-min Rain = 0
KDO2 130202Z 14007KT 33/14 A2984 RMK A01 T03280144  RH  033%=      5-min Rain = 0
KDO2 130203Z 14007KT 33/14 A2984 RMK A01 T03270144  RH  033%=      5-min Rain = 0
KDO2 130204Z 14007KT 33/15 A2984 RMK A01 T03260145  RH  033%=      5-min Rain = 0
KDO2 130205Z 14007KT 33/15 A2984 RMK A01 T03250145  RH  034%=      5-min Rain = 0
KDO2 130206Z 14007KT 33/15 A2984 RMK A01 T03250145  RH  034%=      5-min Rain = 0
KDO2 130207Z 15007KT 32/15 A2984 RMK A01 T03240145  RH  034%=      5-min Rain = 0
KDO2 130208Z 14006KT 32/15 A2984 RMK A01 T03220145  RH  034%=      5-min Rain = 0
KDO2 130209Z 15006KT 32/15 A2984 RMK A01 T03220146  RH  035%=      5-min Rain = 0
KDO2 130210Z 15006KT 32/15 A2984 RMK A01 T03200145  RH  035%=      5-min Rain = 0
KDO2 130211Z 15006KT 32/15 A2984 RMK A01 T03190145  RH  035%=      5-min Rain = 0
KDO2 130212Z 15006KT 32/15 A2984 RMK A01 T03180145  RH  035%=      5-min Rain = 0
KDO2 130213Z 14007KT 32/15 A2985 RMK A01 T03180145  RH  035%=      5-min Rain = 0
KDO2 130214Z 14006KT 32/15 A2985 RMK A01 T03170145  RH  035%=      5-min Rain = 0
KDO2 130215Z 14007KT 32/15 A2985 RMK A01 T03160145  RH  035%=      5-min Rain = 0
KDO2 130216Z 14007KT 32/15 A2985 RMK A01 T03160145  RH  036%=      5-min Rain = 0
KDO2 130217Z 14007KT 32/15 A2985 RMK A01 T03160145  RH  036%=      5-min Rain = 0
KDO2 130218Z 14007KT 32/15 A2985 RMK A01 T03150146  RH  036%=      5-min Rain = 0
KDO2 130219Z 14007KT 31/15 A2985 RMK A01 T03140145  RH  036%=      5-min Rain = 0
KDO2 130220Z 14007KT 31/15 A2985 RMK A01 T03140145  RH  036%=      5-min Rain = 0
KDO2 130221Z 14007KT 31/15 A2985 RMK A01 T03140145  RH  036%=      5-min Rain = 0
KDO2 130222Z 15007KT 31/15 A2985 RMK A01 T03130145  RH  036%=      5-min Rain = 0
KDO2 130223Z 15007KT 31/15 A2985 RMK A01 T03130145  RH  036%=      5-min Rain = 0
KDO2 130224Z 15007KT 31/15 A2985 RMK A01 T03130145  RH  036%=      5-min Rain = 0
KDO2 130225Z 15007KT 31/15 A2985 RMK A01 T03120145  RH  036%=      5-min Rain = 0
KDO2 130226Z 15007KT 31/15 A2985 RMK A01 T03110145  RH  037%=      5-min Rain = 0
KDO2 130227Z 15007KT 31/15 A2985 RMK A01 T03100146  RH  037%=      5-min Rain = 0
KDO2 130228Z 15006KT 31/15 A2985 RMK A01 T03090146  RH  037%=      5-min Rain = 0
KDO2 130229Z 15007KT 31/15 A2985 RMK A01 T03080146  RH  037%=      5-min Rain = 0
KDO2 130230Z 14007KT 31/15 A2985 RMK A01 T03080146  RH  037%=      5-min Rain = 0
KDO2 130231Z 14007KT 31/15 A2985 RMK A01 T03080146  RH  037%=      5-min Rain = 0
KDO2 130232Z 14007KT 31/15 A2985 RMK A01 T03070145  RH  037%=      5-min Rain = 0
KDO2 130233Z 15007KT 31/15 A2985 RMK A01 T03070145  RH  037%=      5-min Rain = 0
KDO2 130234Z 15007KT 31/15 A2985 RMK A01 T03070145  RH  037%=      5-min Rain = 0
KDO2 130235Z 15007KT 31/15 A2985 RMK A01 T03070146  RH  037%=      5-min Rain = 0
KDO2 130236Z 14007KT 31/15 A2985 RMK A01 T03070146  RH  038%=      5-min Rain = 0
KDO2 130237Z 15007KT 31/15 A2985 RMK A01 T03060145  RH  038%=      5-min Rain = 0
KDO2 130238Z 15007KT 31/15 A2985 RMK A01 T03060145  RH  038%=      5-min Rain = 0
KDO2 130239Z 15007KT 31/15 A2985 RMK A01 T03060146  RH  038%=      5-min Rain = 0
KDO2 130240Z 15007KT 30/15 A2986 RMK A01 T03040146  RH  038%=      5-min Rain = 0
KDO2 130241Z 15006KT 30/15 A2986 RMK A01 T03040147  RH  038%=      5-min Rain = 0
KDO2 130242Z 15007KT 30/15 A2986 RMK A01 T03020147  RH  039%=      5-min Rain = 0
KDO2 130243Z 14006KT 30/15 A2986 RMK A01 T03010147  RH  039%=      5-min Rain = 0
KDO2 130244Z 14006KT 30/15 A2986 RMK A01 T03000147  RH  039%=      5-min Rain = 0
KDO2 130245Z 14007KT 30/15 A2986 RMK A01 T02990148  RH  040%=      5-min Rain = 0
KDO2 130246Z 14006KT 30/15 A2986 RMK A01 T02980148  RH  040%=      5-min Rain = 0
KDO2 130247Z 14007KT 30/15 A2986 RMK A01 T02980148  RH  040%=      5-min Rain = 0
KDO2 130248Z 14007KT 30/15 A2986 RMK A01 T02970147  RH  040%=      5-min Rain = 0
KDO2 130249Z 14007KT 30/15 A2986 RMK A01 T02970147  RH  040%=      5-min Rain = 0
KDO2 130250Z 14007KT 30/15 A2986 RMK A01 T02970146  RH  040%=      5-min Rain = 0
KDO2 130251Z 15007KT 30/15 A2986 RMK A01 T02970146  RH  040%=      5-min Rain = 0
KDO2 130252Z 14007KT 30/15 A2986 RMK A01 T02970146  RH  040%=      5-min Rain = 0
KDO2 130253Z 14008KT 30/15 A2986 RMK A01 T02980146  RH  040%=      5-min Rain = 0
KDO2 130254Z 15007KT 30/15 A2986 RMK A01 T02980146  RH  039%=      5-min Rain = 0
KDO2 130255Z 15007KT 30/15 A2986 RMK A01 T02980146  RH  039%=      5-min Rain = 0
KDO2 130256Z 14007KT 30/15 A2986 RMK A01 T02980146  RH  040%=      5-min Rain = 0
KDO2 130257Z 14007KT 30/15 A2986 RMK A01 T02980146  RH  040%=      5-min Rain = 0
KDO2 130258Z 15007KT 30/15 A2986 RMK A01 T02970146  RH  040%=      5-min Rain = 0
KDO2 130259Z 15007KT 30/15 A2986 RMK A01 T02970146  RH  040%=      5-min Rain = 0
KDO2 130300Z 15007KT 30/15 A2986 RMK A01 T02970146  RH  040%=      5-min Rain = 0
KDO2 130301Z 15007KT 30/15 A2986 RMK A01 T02970146  RH  040%=      5-min Rain = 0
KDO2 130302Z 15007KT 30/15 A2986 RMK A01 T02960146  RH  040%=      5-min Rain = 0
KDO2 130303Z 15007KT 30/15 A2986 RMK A01 T02950146  RH  040%=      5-min Rain = 0
KDO2 130304Z 14007KT 30/15 A2986 RMK A01 T02950146  RH  040%=      5-min Rain = 0
KDO2 130305Z 14007KT 29/15 A2986 RMK A01 T02940146  RH  040%=      5-min Rain = 0
KDO2 130306Z 14008KT 29/15 A2986 RMK A01 T02940146  RH  041%=      5-min Rain = 0
KDO2 130307Z 14008KT 29/15 A2986 RMK A01 T02940146  RH  041%=      5-min Rain = 0
KDO2 130308Z 14008KT 29/15 A2986 RMK A01 T02930145  RH  040%=      5-min Rain = 0
KDO2 130309Z 14008KT 29/15 A2986 RMK A01 T02940145  RH  040%=      5-min Rain = 0
KDO2 130310Z 14007KT 29/15 A2986 RMK A01 T02940145  RH  040%=      5-min Rain = 0
KDO2 130311Z 15008KT 30/15 A2986 RMK A01 T02950145  RH  040%=      5-min Rain = 0
KDO2 130312Z 15008KT 30/15 A2986 RMK A01 T02950145  RH  040%=      5-min Rain = 0
KDO2 130313Z 15008KT 30/15 A2986 RMK A01 T02960145  RH  040%=      5-min Rain = 0
KDO2 130314Z 15008KT 30/15 A2986 RMK A01 T02970145  RH  039%=      5-min Rain = 0
KDO2 130315Z 15008KT 30/15 A2986 RMK A01 T02980145  RH  039%=      5-min Rain = 0
KDO2 130316Z 15008KT 30/15 A2986 RMK A01 T02980145  RH  039%=      5-min Rain = 0
KDO2 130317Z 15007KT 30/15 A2987 RMK A01 T02990145  RH  039%=      5-min Rain = 0
KDO2 130318Z 15008KT 30/15 A2987 RMK A01 T02990145  RH  039%=      5-min Rain = 0
KDO2 130319Z 16007KT 30/15 A2987 RMK A01 T03000145  RH  039%=      5-min Rain = 0
KDO2 130320Z 16007KT 30/15 A2987 RMK A01 T03000145  RH  039%=      5-min Rain = 0
KDO2 130321Z 16007KT 30/15 A2987 RMK A01 T03010146  RH  039%=      5-min Rain = 0
KDO2 130322Z 16008KT 30/15 A2987 RMK A01 T03000146  RH  039%=      5-min Rain = 0
KDO2 130323Z 16007KT 30/15 A2987 RMK A01 T03000146  RH  039%=      5-min Rain = 0
KDO2 130324Z 16007KT 30/15 A2987 RMK A01 T03010146  RH  039%=      5-min Rain = 0
KDO2 130325Z 16007KT 30/15 A2987 RMK A01 T03010146  RH  039%=      5-min Rain = 0
KDO2 130326Z 16007KT 30/15 A2987 RMK A01 T03010146  RH  039%=      5-min Rain = 0
KDO2 130327Z 16007KT 30/15 A2987 RMK A01 T03020147  RH  039%=      5-min Rain = 0
KDO2 130328Z 16007KT 30/15 A2987 RMK A01 T03030147  RH  039%=      5-min Rain = 0
KDO2 130329Z 16007KT 30/15 A2987 RMK A01 T03030147  RH  039%=      5-min Rain = 0
KDO2 130330Z 16008KT 30/15 A2987 RMK A01 T03040148  RH  039%=      5-min Rain = 0
KDO2 130331Z 16007KT 31/15 A2987 RMK A01 T03050148  RH  039%=      5-min Rain = 0
KDO2 130332Z 16008KT 31/15 A2987 RMK A01 T03060149  RH  038%=      5-min Rain = 0
KDO2 130333Z 16008KT 31/15 A2987 RMK A01 T03080150  RH  038%=      5-min Rain = 0
KDO2 130334Z 16008KT 31/15 A2987 RMK A01 T03100150  RH  038%=      5-min Rain = 0
KDO2 130335Z 16007KT 31/15 A2987 RMK A01 T03110150  RH  038%=      5-min Rain = 0
KDO2 130336Z 16008KT 31/15 A2987 RMK A01 T03110151  RH  038%=      5-min Rain = 0
KDO2 130337Z 16009KT 31/15 A2987 RMK A01 T03110151  RH  038%=      5-min Rain = 0
KDO2 130338Z 16009KT 31/15 A2987 RMK A01 T03120152  RH  038%=      5-min Rain = 0
KDO2 130339Z 16009KT 31/15 A2987 RMK A01 T03130152  RH  038%=      5-min Rain = 0
KDO2 130340Z 17008KT 31/15 A2987 RMK A01 T03140153  RH  038%=      5-min Rain = 0
KDO2 130341Z 16009KT 31/15 A2987 RMK A01 T03140153  RH  038%=      5-min Rain = 0
KDO2 130342Z 16009KT 31/15 A2987 RMK A01 T03140153  RH  038%=      5-min Rain = 0
KDO2 130343Z 16009KT 32/15 A2987 RMK A01 T03150153  RH  038%=      5-min Rain = 0
KDO2 130344Z 17009KT 32/15 A2987 RMK A01 T03160154  RH  038%=      5-min Rain = 0
KDO2 130345Z 17008KT 32/15 A2987 RMK A01 T03160154  RH  038%=      5-min Rain = 0
KDO2 130346Z 17009KT 32/15 A2987 RMK A01 T03170154  RH  038%=      5-min Rain = 0
KDO2 130347Z 17008KT 32/15 A2987 RMK A01 T03160154  RH  038%=      5-min Rain = 0
KDO2 130348Z 17008KT 32/16 A2987 RMK A01 T03160155  RH  038%=      5-min Rain = 0
KDO2 130349Z 17009KT 32/16 A2987 RMK A01 T03160155  RH  038%=      5-min Rain = 0
KDO2 130350Z 17009KT 32/16 A2987 RMK A01 T03160156  RH  038%=      5-min Rain = 0
KDO2 130351Z 16010KT 32/16 A2987 RMK A01 T03160156  RH  038%=      5-min Rain = 0
KDO2 130352Z 16010KT 32/16 A2987 RMK A01 T03160156  RH  038%=      5-min Rain = 0
KDO2 130353Z 16011KT 32/16 A2987 RMK A01 T03170156  RH  038%=      5-min Rain = 0
KDO2 130354Z 16011KT 32/16 A2987 RMK A01 T03170157  RH  038%=      5-min Rain = 0
KDO2 130355Z 16012KT 32/16 A2987 RMK A01 T03180157  RH  038%=      5-min Rain = 0
KDO2 130356Z 16011KT 32/16 A2987 RMK A01 T03180157  RH  038%=      5-min Rain = 0
KDO2 130357Z 16011KT 32/16 A2987 RMK A01 T03180157  RH  038%=      5-min Rain = 0
KDO2 130358Z 16013KT 32/16 A2987 RMK A01 T03180157  RH  038%=      5-min Rain = 0
KDO2 130359Z 16010KT 32/16 A2987 RMK A01 T03180157  RH  038%=      5-min Rain = 0
KDO2 130400Z 16012KT 32/16 A2987 RMK A01 T03180158  RH  038%=      5-min Rain = 0
KDO2 130401Z 16010KT 32/16 A2987 RMK A01 T03180158  RH  038%=      5-min Rain = 0
KDO2 130402Z 16010KT 32/16 A2987 RMK A01 T03170158  RH  038%=      5-min Rain = 0
KDO2 130403Z 16011KT 32/16 A2987 RMK A01 T03160158  RH  038%=      5-min Rain = 0
KDO2 130404Z 16011KT 32/16 A2987 RMK A01 T03170158  RH  038%=      5-min Rain = 0
KDO2 130405Z 16010KT 32/16 A2987 RMK A01 T03160158  RH  039%=      5-min Rain = 0
KDO2 130406Z 16011KT 32/16 A2987 RMK A01 T03160158  RH  039%=      5-min Rain = 0
KDO2 130407Z 16011KT 32/16 A2987 RMK A01 T03150158  RH  039%=      5-min Rain = 0
KDO2 130408Z 16010KT 32/16 A2987 RMK A01 T03150158  RH  039%=      5-min Rain = 0
KDO2 130409Z 16011KT 32/16 A2987 RMK A01 T03150159  RH  039%=      5-min Rain = 0
KDO2 130410Z 16010KT 32/16 A2987 RMK A01 T03150159  RH  039%=      5-min Rain = 0
KDO2 130411Z 16010KT 31/16 A2987 RMK A01 T03140159  RH  039%=      5-min Rain = 0
KDO2 130412Z 16010KT 31/16 A2987 RMK A01 T03140159  RH  039%=      5-min Rain = 0
KDO2 130413Z 16008KT 31/16 A2987 RMK A01 T03140159  RH  039%=      5-min Rain = 0
KDO2 130414Z 16009KT 31/16 A2987 RMK A01 T03140160  RH  039%=      5-min Rain = 0
KDO2 130415Z 16010KT 31/16 A2987 RMK A01 T03130160  RH  040%=      5-min Rain = 0
KDO2 130416Z 16010KT 31/16 A2987 RMK A01 T03130160  RH  040%=      5-min Rain = 0
KDO2 130417Z 16011KT 31/16 A2987 RMK A01 T03120160  RH  040%=      5-min Rain = 0
KDO2 130418Z 16010KT 31/16 A2987 RMK A01 T03120159  RH  040%=      5-min Rain = 0
KDO2 130419Z 16010KT 31/16 A2987 RMK A01 T03120160  RH  040%=      5-min Rain = 0
KDO2 130420Z 16010KT 31/16 A2987 RMK A01 T03120160  RH  040%=      5-min Rain = 0
KDO2 130421Z 16010KT 31/16 A2987 RMK A01 T03120160  RH  040%=      5-min Rain = 0
KDO2 130422Z 16009KT 31/16 A2987 RMK A01 T03120161  RH  040%=      5-min Rain = 0
KDO2 130423Z 16010KT 31/16 A2987 RMK A01 T03110161  RH  040%=      5-min Rain = 0
KDO2 130424Z 16010KT 31/16 A2987 RMK A01 T03110161  RH  040%=      5-min Rain = 0
KDO2 130425Z 16009KT 31/16 A2987 RMK A01 T03110161  RH  040%=      5-min Rain = 0
KDO2 130426Z 16008KT 31/16 A2987 RMK A01 T03110161  RH  041%=      5-min Rain = 0
KDO2 130427Z 16009KT 31/16 A2987 RMK A01 T03100161  RH  041%=      5-min Rain = 0
KDO2 130428Z 16010KT 31/16 A2987 RMK A01 T03090161  RH  041%=      5-min Rain = 0
KDO2 130429Z 16009KT 31/16 A2987 RMK A01 T03090161  RH  041%=      5-min Rain = 0
KDO2 130430Z 15010KT 31/16 A2987 RMK A01 T03090161  RH  041%=      5-min Rain = 0
KDO2 130431Z 15009KT 31/16 A2987 RMK A01 T03090162  RH  041%=      5-min Rain = 0
KDO2 130432Z 15009KT 31/16 A2987 RMK A01 T03100162  RH  041%=      5-min Rain = 0
KDO2 130433Z 15008KT 31/16 A2987 RMK A01 T03090162  RH  041%=      5-min Rain = 0
KDO2 130434Z 16009KT 31/16 A2987 RMK A01 T03080162  RH  041%=      5-min Rain = 0
KDO2 130435Z 16011KT 31/16 A2987 RMK A01 T03080162  RH  041%=      5-min Rain = 0
KDO2 130436Z 16010KT 31/16 A2987 RMK A01 T03080163  RH  041%=      5-min Rain = 0
KDO2 130437Z 16010KT 31/16 A2987 RMK A01 T03090163  RH  041%=      5-min Rain = 0
KDO2 130438Z 16008KT 31/16 A2987 RMK A01 T03090163  RH  041%=      5-min Rain = 0
KDO2 130439Z 16010KT 31/16 A2987 RMK A01 T03090163  RH  041%=      5-min Rain = 0
KDO2 130440Z 16008KT 31/16 A2987 RMK A01 T03090163  RH  041%=      5-min Rain = 0
KDO2 130441Z 16009KT 31/16 A2987 RMK A01 T03090164  RH  042%=      5-min Rain = 0
KDO2 130442Z 16010KT 31/16 A2987 RMK A01 T03090164  RH  042%=      5-min Rain = 0
KDO2 130443Z 16010KT 31/16 A2987 RMK A01 T03090164  RH  042%=      5-min Rain = 0
KDO2 130444Z 16009KT 31/16 A2987 RMK A01 T03100164  RH  042%=      5-min Rain = 0
KDO2 130445Z 16008KT 31/16 A2987 RMK A01 T03100164  RH  042%=      5-min Rain = 0
KDO2 130446Z 16012KT 31/17 A2987 RMK A01 T03100165  RH  042%=      5-min Rain = 0
KDO2 130447Z 16011KT 31/17 A2987 RMK A01 T03110165  RH  042%=      5-min Rain = 0
KDO2 130448Z 16010KT 31/17 A2987 RMK A01 T03120165  RH  041%=      5-min Rain = 0
KDO2 130449Z 16009KT 31/17 A2987 RMK A01 T03120165  RH  041%=      5-min Rain = 0
KDO2 130450Z 16011KT 31/17 A2987 RMK A01 T03110166  RH  042%=      5-min Rain = 0
KDO2 130451Z 16012KT 31/17 A2987 RMK A01 T03120166  RH  042%=      5-min Rain = 0
KDO2 130452Z 16010KT 31/17 A2987 RMK A01 T03120166  RH  041%=      5-min Rain = 0
KDO2 130453Z 16010KT 31/17 A2987 RMK A01 T03120166  RH  041%=      5-min Rain = 0
KDO2 130454Z 15011KT 31/17 A2987 RMK A01 T03120166  RH  041%=      5-min Rain = 0
KDO2 130455Z 16010KT 31/17 A2987 RMK A01 T03120166  RH  042%=      5-min Rain = 0
KDO2 130456Z 16011KT 31/17 A2987 RMK A01 T03120166  RH  042%=      5-min Rain = 0
KDO2 130457Z 16009KT 31/17 A2987 RMK A01 T03120166  RH  042%=      5-min Rain = 0
KDO2 130458Z 15010KT 31/17 A2987 RMK A01 T03120166  RH  042%=      5-min Rain = 0
KDO2 130459Z 15010KT 31/17 A2987 RMK A01 T03120166  RH  042%=      5-min Rain = 0

Page generated in 0.0736 seconds.